<?xml version="1.0" encoding="UTF-8" standalone="no" ?>
<gpx xmlns="http://www.topografix.com/GPX/1/1" xmlns:xsi="http://www.w3.org/2001/XMLSchema-instance" xsi:schemaLocation="http://www.topografix.com/GPX/1/1 http://www.topografix.com/GPX/1/1/gpx.xsd" version="1.1" creator="VisuGPX - https://www.visugpx.com">
  <metadata>
    <name>Forêt de Bord avec retour sur les rives de l'Eure - 26397 - UtagawaVTT.com</name>
  </metadata>
  <trk>
    <name><![CDATA[Forêt de Bord avec retour sur les rives de l'Eure - 26397 - UtagawaVTT.com]]></name>
    <trkseg>
      <trkpt lat="49.3033" lon="1.17775">
        <ele>5.4</ele>
        <time>2020-06-01T08:20:02Z</time>
      </trkpt>
      <trkpt lat="49.30335" lon="1.17777">
        <ele>5.275</ele>
        <time>2020-06-01T08:23:38Z</time>
      </trkpt>
      <trkpt lat="49.30332" lon="1.17787">
        <ele>5.345</ele>
        <time>2020-06-01T08:23:56Z</time>
      </trkpt>
      <trkpt lat="49.30325" lon="1.17792">
        <ele>5.515</ele>
        <time>2020-06-01T08:23:59Z</time>
      </trkpt>
      <trkpt lat="49.3032" lon="1.17798">
        <ele>5.62</ele>
        <time>2020-06-01T08:24:01Z</time>
      </trkpt>
      <trkpt lat="49.30305" lon="1.17931">
        <ele>5.531037</ele>
        <time>2020-06-01T08:24:29Z</time>
      </trkpt>
      <trkpt lat="49.30301" lon="1.17938">
        <ele>5.528125</ele>
        <time>2020-06-01T08:24:31Z</time>
      </trkpt>
      <trkpt lat="49.3016" lon="1.17906">
        <ele>11.172875</ele>
        <time>2020-06-01T08:25:14Z</time>
      </trkpt>
      <trkpt lat="49.30103" lon="1.17875">
        <ele>16.536787</ele>
        <time>2020-06-01T08:25:34Z</time>
      </trkpt>
      <trkpt lat="49.30094" lon="1.17851">
        <ele>16.1381</ele>
        <time>2020-06-01T08:25:40Z</time>
      </trkpt>
      <trkpt lat="49.30086" lon="1.17814">
        <ele>17.653015</ele>
        <time>2020-06-01T08:25:49Z</time>
      </trkpt>
      <trkpt lat="49.30092" lon="1.17697">
        <ele>26.7425</ele>
        <time>2020-06-01T08:26:21Z</time>
      </trkpt>
      <trkpt lat="49.30062" lon="1.17601">
        <ele>32.188751</ele>
        <time>2020-06-01T08:26:53Z</time>
      </trkpt>
      <trkpt lat="49.30034" lon="1.17538">
        <ele>34.242001</ele>
        <time>2020-06-01T08:27:09Z</time>
      </trkpt>
      <trkpt lat="49.30002" lon="1.17496">
        <ele>35.599998</ele>
        <time>2020-06-01T08:27:20Z</time>
      </trkpt>
      <trkpt lat="49.29921" lon="1.17453">
        <ele>36.805</ele>
        <time>2020-06-01T08:27:46Z</time>
      </trkpt>
      <trkpt lat="49.29914" lon="1.17453">
        <ele>36.942501</ele>
        <time>2020-06-01T08:27:48Z</time>
      </trkpt>
      <trkpt lat="49.29871" lon="1.17528">
        <ele>38.864063</ele>
        <time>2020-06-01T08:28:06Z</time>
      </trkpt>
      <trkpt lat="49.29861" lon="1.17536">
        <ele>39.132362</ele>
        <time>2020-06-01T08:28:10Z</time>
      </trkpt>
      <trkpt lat="49.29839" lon="1.17572">
        <ele>39.174374</ele>
        <time>2020-06-01T08:28:21Z</time>
      </trkpt>
      <trkpt lat="49.29731" lon="1.17721">
        <ele>31.615749</ele>
        <time>2020-06-01T08:28:53Z</time>
      </trkpt>
      <trkpt lat="49.29649" lon="1.17819">
        <ele>33.000999</ele>
        <time>2020-06-01T08:29:20Z</time>
      </trkpt>
      <trkpt lat="49.29645" lon="1.17835">
        <ele>32.843201</ele>
        <time>2020-06-01T08:29:24Z</time>
      </trkpt>
      <trkpt lat="49.29657" lon="1.17849">
        <ele>32.643063</ele>
        <time>2020-06-01T08:29:29Z</time>
      </trkpt>
      <trkpt lat="49.29664" lon="1.17853">
        <ele>32.990017</ele>
        <time>2020-06-01T08:29:32Z</time>
      </trkpt>
      <trkpt lat="49.29671" lon="1.17853">
        <ele>32.91375</ele>
        <time>2020-06-01T08:29:36Z</time>
      </trkpt>
      <trkpt lat="49.29722" lon="1.1782">
        <ele>34.59375</ele>
        <time>2020-06-01T08:29:55Z</time>
      </trkpt>
      <trkpt lat="49.2974" lon="1.17799">
        <ele>32.651127</ele>
        <time>2020-06-01T08:30:01Z</time>
      </trkpt>
      <trkpt lat="49.29745" lon="1.17799">
        <ele>32.643139</ele>
        <time>2020-06-01T08:30:03Z</time>
      </trkpt>
      <trkpt lat="49.29751" lon="1.17804">
        <ele>33.4296</ele>
        <time>2020-06-01T08:30:06Z</time>
      </trkpt>
      <trkpt lat="49.29772" lon="1.17841">
        <ele>39.664749</ele>
        <time>2020-06-01T08:30:23Z</time>
      </trkpt>
      <trkpt lat="49.29794" lon="1.17869">
        <ele>41.881248</ele>
        <time>2020-06-01T08:30:36Z</time>
      </trkpt>
      <trkpt lat="49.29797" lon="1.17876">
        <ele>42.409374</ele>
        <time>2020-06-01T08:30:39Z</time>
      </trkpt>
      <trkpt lat="49.29808" lon="1.17888">
        <ele>43.337502</ele>
        <time>2020-06-01T08:30:46Z</time>
      </trkpt>
      <trkpt lat="49.29818" lon="1.17903">
        <ele>44.0443</ele>
        <time>2020-06-01T08:30:52Z</time>
      </trkpt>
      <trkpt lat="49.29862" lon="1.17987">
        <ele>40.488174</ele>
        <time>2020-06-01T08:31:16Z</time>
      </trkpt>
      <trkpt lat="49.29871" lon="1.18015">
        <ele>40.528</ele>
        <time>2020-06-01T08:31:23Z</time>
      </trkpt>
      <trkpt lat="49.2989" lon="1.18044">
        <ele>41.0825</ele>
        <time>2020-06-01T08:31:33Z</time>
      </trkpt>
      <trkpt lat="49.29894" lon="1.18063">
        <ele>41.955162</ele>
        <time>2020-06-01T08:31:41Z</time>
      </trkpt>
      <trkpt lat="49.29898" lon="1.18073">
        <ele>42.271999</ele>
        <time>2020-06-01T08:31:44Z</time>
      </trkpt>
      <trkpt lat="49.29903" lon="1.18081">
        <ele>42.430214</ele>
        <time>2020-06-01T08:31:46Z</time>
      </trkpt>
      <trkpt lat="49.29904" lon="1.18091">
        <ele>42.730118</ele>
        <time>2020-06-01T08:31:49Z</time>
      </trkpt>
      <trkpt lat="49.29884" lon="1.18124">
        <ele>45.302986</ele>
        <time>2020-06-01T08:32:02Z</time>
      </trkpt>
      <trkpt lat="49.29877" lon="1.1814">
        <ele>46.224407</ele>
        <time>2020-06-01T08:32:08Z</time>
      </trkpt>
      <trkpt lat="49.29822" lon="1.18241">
        <ele>53.041126</ele>
        <time>2020-06-01T08:32:39Z</time>
      </trkpt>
      <trkpt lat="49.2978" lon="1.18342">
        <ele>56.493752</ele>
        <time>2020-06-01T08:33:11Z</time>
      </trkpt>
      <trkpt lat="49.29729" lon="1.18439">
        <ele>61.400623</ele>
        <time>2020-06-01T08:33:42Z</time>
      </trkpt>
      <trkpt lat="49.29704" lon="1.18494">
        <ele>63.41</ele>
        <time>2020-06-01T08:34:00Z</time>
      </trkpt>
      <trkpt lat="49.29692" lon="1.18511">
        <ele>64.220001</ele>
        <time>2020-06-01T08:34:07Z</time>
      </trkpt>
      <trkpt lat="49.29662" lon="1.18582">
        <ele>66.181297</ele>
        <time>2020-06-01T08:34:29Z</time>
      </trkpt>
      <trkpt lat="49.2964" lon="1.1862">
        <ele>67.821815</ele>
        <time>2020-06-01T08:34:41Z</time>
      </trkpt>
      <trkpt lat="49.29627" lon="1.18649">
        <ele>68.220001</ele>
        <time>2020-06-01T08:34:51Z</time>
      </trkpt>
      <trkpt lat="49.29622" lon="1.18664">
        <ele>68.330002</ele>
        <time>2020-06-01T08:34:55Z</time>
      </trkpt>
      <trkpt lat="49.29619" lon="1.18685">
        <ele>68.608749</ele>
        <time>2020-06-01T08:34:58Z</time>
      </trkpt>
      <trkpt lat="49.29622" lon="1.187">
        <ele>68.772499</ele>
        <time>2020-06-01T08:35:00Z</time>
      </trkpt>
      <trkpt lat="49.29644" lon="1.18728">
        <ele>68.574997</ele>
        <time>2020-06-01T08:35:07Z</time>
      </trkpt>
      <trkpt lat="49.29662" lon="1.18755">
        <ele>68.050613</ele>
        <time>2020-06-01T08:35:14Z</time>
      </trkpt>
      <trkpt lat="49.29826" lon="1.18935">
        <ele>55.189999</ele>
        <time>2020-06-01T08:35:44Z</time>
      </trkpt>
      <trkpt lat="49.29896" lon="1.19007">
        <ele>43.285</ele>
        <time>2020-06-01T08:35:52Z</time>
      </trkpt>
      <trkpt lat="49.29901" lon="1.19014">
        <ele>42.141518</ele>
        <time>2020-06-01T08:35:54Z</time>
      </trkpt>
      <trkpt lat="49.29908" lon="1.19032">
        <ele>40.353127</ele>
        <time>2020-06-01T08:35:58Z</time>
      </trkpt>
      <trkpt lat="49.29916" lon="1.1904">
        <ele>38.611721</ele>
        <time>2020-06-01T08:36:01Z</time>
      </trkpt>
      <trkpt lat="49.29919" lon="1.19051">
        <ele>37.520489</ele>
        <time>2020-06-01T08:36:03Z</time>
      </trkpt>
      <trkpt lat="49.29918" lon="1.1906">
        <ele>37.399399</ele>
        <time>2020-06-01T08:36:06Z</time>
      </trkpt>
      <trkpt lat="49.29913" lon="1.19067">
        <ele>37.952065</ele>
        <time>2020-06-01T08:36:10Z</time>
      </trkpt>
      <trkpt lat="49.29908" lon="1.19071">
        <ele>38.676563</ele>
        <time>2020-06-01T08:36:13Z</time>
      </trkpt>
      <trkpt lat="49.29891" lon="1.1911">
        <ele>40.016788</ele>
        <time>2020-06-01T08:36:30Z</time>
      </trkpt>
      <trkpt lat="49.29886" lon="1.19117">
        <ele>40.876724</ele>
        <time>2020-06-01T08:36:35Z</time>
      </trkpt>
      <trkpt lat="49.29869" lon="1.19149">
        <ele>43.123089</ele>
        <time>2020-06-01T08:36:48Z</time>
      </trkpt>
      <trkpt lat="49.2983" lon="1.19197">
        <ele>50.772831</ele>
        <time>2020-06-01T08:37:20Z</time>
      </trkpt>
      <trkpt lat="49.29823" lon="1.19202">
        <ele>52.241127</ele>
        <time>2020-06-01T08:37:24Z</time>
      </trkpt>
      <trkpt lat="49.29805" lon="1.19227">
        <ele>54.377499</ele>
        <time>2020-06-01T08:37:38Z</time>
      </trkpt>
      <trkpt lat="49.29785" lon="1.19246">
        <ele>57.19545</ele>
        <time>2020-06-01T08:37:54Z</time>
      </trkpt>
      <trkpt lat="49.2978" lon="1.19248">
        <ele>58.175938</ele>
        <time>2020-06-01T08:37:58Z</time>
      </trkpt>
      <trkpt lat="49.29768" lon="1.1926">
        <ele>59.213123</ele>
        <time>2020-06-01T08:38:05Z</time>
      </trkpt>
      <trkpt lat="49.29737" lon="1.19282">
        <ele>61.737499</ele>
        <time>2020-06-01T08:38:19Z</time>
      </trkpt>
      <trkpt lat="49.29729" lon="1.19293">
        <ele>61.885361</ele>
        <time>2020-06-01T08:38:24Z</time>
      </trkpt>
      <trkpt lat="49.2972" lon="1.19296">
        <ele>62.512314</ele>
        <time>2020-06-01T08:38:27Z</time>
      </trkpt>
      <trkpt lat="49.29704" lon="1.19309">
        <ele>63.218876</ele>
        <time>2020-06-01T08:38:34Z</time>
      </trkpt>
      <trkpt lat="49.29661" lon="1.19362">
        <ele>64.763824</ele>
        <time>2020-06-01T08:38:53Z</time>
      </trkpt>
      <trkpt lat="49.29652" lon="1.19369">
        <ele>65.366974</ele>
        <time>2020-06-01T08:38:58Z</time>
      </trkpt>
      <trkpt lat="49.29631" lon="1.19373">
        <ele>67.318054</ele>
        <time>2020-06-01T08:39:08Z</time>
      </trkpt>
      <trkpt lat="49.29546" lon="1.1929">
        <ele>73.146248</ele>
        <time>2020-06-01T08:39:39Z</time>
      </trkpt>
      <trkpt lat="49.29434" lon="1.19165">
        <ele>73.125626</ele>
        <time>2020-06-01T08:40:11Z</time>
      </trkpt>
      <trkpt lat="49.29414" lon="1.1914">
        <ele>72.980553</ele>
        <time>2020-06-01T08:40:17Z</time>
      </trkpt>
      <trkpt lat="49.29407" lon="1.19134">
        <ele>72.925468</ele>
        <time>2020-06-01T08:40:19Z</time>
      </trkpt>
      <trkpt lat="49.294" lon="1.19133">
        <ele>72.869339</ele>
        <time>2020-06-01T08:40:21Z</time>
      </trkpt>
      <trkpt lat="49.29313" lon="1.19292">
        <ele>74.938751</ele>
        <time>2020-06-01T08:40:53Z</time>
      </trkpt>
      <trkpt lat="49.29287" lon="1.19355">
        <ele>75.849373</ele>
        <time>2020-06-01T08:41:04Z</time>
      </trkpt>
      <trkpt lat="49.29281" lon="1.19365">
        <ele>75.995628</ele>
        <time>2020-06-01T08:41:06Z</time>
      </trkpt>
      <trkpt lat="49.29271" lon="1.1937">
        <ele>76.020439</ele>
        <time>2020-06-01T08:41:08Z</time>
      </trkpt>
      <trkpt lat="49.29138" lon="1.19321">
        <ele>75.7006</ele>
        <time>2020-06-01T08:41:38Z</time>
      </trkpt>
      <trkpt lat="49.29076" lon="1.1929">
        <ele>74.489998</ele>
        <time>2020-06-01T08:41:55Z</time>
      </trkpt>
      <trkpt lat="49.29077" lon="1.19289">
        <ele>74.473122</ele>
        <time>2020-06-01T08:43:28Z</time>
      </trkpt>
      <trkpt lat="49.29069" lon="1.19293">
        <ele>74.623123</ele>
        <time>2020-06-01T08:44:28Z</time>
      </trkpt>
      <trkpt lat="49.29066" lon="1.19299">
        <ele>74.908127</ele>
        <time>2020-06-01T08:46:04Z</time>
      </trkpt>
      <trkpt lat="49.29066" lon="1.19309">
        <ele>75.348747</ele>
        <time>2020-06-01T08:46:06Z</time>
      </trkpt>
      <trkpt lat="49.29095" lon="1.19425">
        <ele>79.793907</ele>
        <time>2020-06-01T08:46:25Z</time>
      </trkpt>
      <trkpt lat="49.29096" lon="1.19432">
        <ele>80.013863</ele>
        <time>2020-06-01T08:46:26Z</time>
      </trkpt>
      <trkpt lat="49.29094" lon="1.19437">
        <ele>80.221863</ele>
        <time>2020-06-01T08:46:28Z</time>
      </trkpt>
      <trkpt lat="49.29072" lon="1.19445">
        <ele>80.559998</ele>
        <time>2020-06-01T08:46:33Z</time>
      </trkpt>
      <trkpt lat="49.2894" lon="1.19474">
        <ele>80.890373</ele>
        <time>2020-06-01T08:47:01Z</time>
      </trkpt>
      <trkpt lat="49.28934" lon="1.19472">
        <ele>81.014648</ele>
        <time>2020-06-01T08:47:02Z</time>
      </trkpt>
      <trkpt lat="49.28857" lon="1.19412">
        <ele>80.792885</ele>
        <time>2020-06-01T08:47:19Z</time>
      </trkpt>
      <trkpt lat="49.28792" lon="1.19423">
        <ele>80.990456</ele>
        <time>2020-06-01T08:47:32Z</time>
      </trkpt>
      <trkpt lat="49.28784" lon="1.1942">
        <ele>81</ele>
        <time>2020-06-01T08:47:34Z</time>
      </trkpt>
      <trkpt lat="49.28737" lon="1.19204">
        <ele>77.730278</ele>
        <time>2020-06-01T08:48:05Z</time>
      </trkpt>
      <trkpt lat="49.28715" lon="1.19136">
        <ele>78.239998</ele>
        <time>2020-06-01T08:48:22Z</time>
      </trkpt>
      <trkpt lat="49.28716" lon="1.19144">
        <ele>78.220001</ele>
        <time>2020-06-01T08:48:37Z</time>
      </trkpt>
      <trkpt lat="49.28746" lon="1.19245">
        <ele>78.045319</ele>
        <time>2020-06-01T08:48:57Z</time>
      </trkpt>
      <trkpt lat="49.28738" lon="1.19246">
        <ele>78.226875</ele>
        <time>2020-06-01T08:49:15Z</time>
      </trkpt>
      <trkpt lat="49.28742" lon="1.19239">
        <ele>78.034851</ele>
        <time>2020-06-01T08:49:52Z</time>
      </trkpt>
      <trkpt lat="49.28745" lon="1.19231">
        <ele>77.84375</ele>
        <time>2020-06-01T08:49:55Z</time>
      </trkpt>
      <trkpt lat="49.28723" lon="1.19144">
        <ele>77.93</ele>
        <time>2020-06-01T08:50:13Z</time>
      </trkpt>
      <trkpt lat="49.28717" lon="1.19139">
        <ele>78.160004</ele>
        <time>2020-06-01T08:50:24Z</time>
      </trkpt>
      <trkpt lat="49.28711" lon="1.1913">
        <ele>78.419998</ele>
        <time>2020-06-01T08:51:46Z</time>
      </trkpt>
      <trkpt lat="49.28608" lon="1.19197">
        <ele>82.745003</ele>
        <time>2020-06-01T08:52:17Z</time>
      </trkpt>
      <trkpt lat="49.28584" lon="1.19214">
        <ele>83.556252</ele>
        <time>2020-06-01T08:52:23Z</time>
      </trkpt>
      <trkpt lat="49.2853" lon="1.19272">
        <ele>85.237091</ele>
        <time>2020-06-01T08:52:39Z</time>
      </trkpt>
      <trkpt lat="49.28511" lon="1.19269">
        <ele>85.784988</ele>
        <time>2020-06-01T08:52:44Z</time>
      </trkpt>
      <trkpt lat="49.28504" lon="1.19269">
        <ele>85.882446</ele>
        <time>2020-06-01T08:52:46Z</time>
      </trkpt>
      <trkpt lat="49.28486" lon="1.19279">
        <ele>85.904922</ele>
        <time>2020-06-01T08:52:53Z</time>
      </trkpt>
      <trkpt lat="49.28471" lon="1.19297">
        <ele>85.360237</ele>
        <time>2020-06-01T08:52:59Z</time>
      </trkpt>
      <trkpt lat="49.28465" lon="1.193">
        <ele>85.073685</ele>
        <time>2020-06-01T08:53:01Z</time>
      </trkpt>
      <trkpt lat="49.28457" lon="1.19302">
        <ele>84.716545</ele>
        <time>2020-06-01T08:53:03Z</time>
      </trkpt>
      <trkpt lat="49.28422" lon="1.19325">
        <ele>82.161186</ele>
        <time>2020-06-01T08:53:11Z</time>
      </trkpt>
      <trkpt lat="49.28404" lon="1.19344">
        <ele>79.88517</ele>
        <time>2020-06-01T08:53:15Z</time>
      </trkpt>
      <trkpt lat="49.28395" lon="1.19341">
        <ele>79.477829</ele>
        <time>2020-06-01T08:53:18Z</time>
      </trkpt>
      <trkpt lat="49.28384" lon="1.19346">
        <ele>78.332199</ele>
        <time>2020-06-01T08:53:21Z</time>
      </trkpt>
      <trkpt lat="49.28376" lon="1.19359">
        <ele>76.575188</ele>
        <time>2020-06-01T08:53:23Z</time>
      </trkpt>
      <trkpt lat="49.28369" lon="1.19373">
        <ele>74.748749</ele>
        <time>2020-06-01T08:53:25Z</time>
      </trkpt>
      <trkpt lat="49.2836" lon="1.19378">
        <ele>73.425316</ele>
        <time>2020-06-01T08:53:27Z</time>
      </trkpt>
      <trkpt lat="49.28336" lon="1.19425">
        <ele>66.396385</ele>
        <time>2020-06-01T08:53:33Z</time>
      </trkpt>
      <trkpt lat="49.2833" lon="1.19436">
        <ele>65.100853</ele>
        <time>2020-06-01T08:53:35Z</time>
      </trkpt>
      <trkpt lat="49.28319" lon="1.19445">
        <ele>63.783539</ele>
        <time>2020-06-01T08:53:39Z</time>
      </trkpt>
      <trkpt lat="49.28303" lon="1.19452">
        <ele>62.584587</ele>
        <time>2020-06-01T08:53:54Z</time>
      </trkpt>
      <trkpt lat="49.28296" lon="1.19445">
        <ele>63.451389</ele>
        <time>2020-06-01T08:53:59Z</time>
      </trkpt>
      <trkpt lat="49.28269" lon="1.1944">
        <ele>63.706837</ele>
        <time>2020-06-01T08:54:07Z</time>
      </trkpt>
      <trkpt lat="49.28259" lon="1.19442">
        <ele>63.250999</ele>
        <time>2020-06-01T08:54:12Z</time>
      </trkpt>
      <trkpt lat="49.2825" lon="1.1944">
        <ele>63.326248</ele>
        <time>2020-06-01T08:54:16Z</time>
      </trkpt>
      <trkpt lat="49.28187" lon="1.19403">
        <ele>66.135002</ele>
        <time>2020-06-01T08:54:37Z</time>
      </trkpt>
      <trkpt lat="49.28162" lon="1.19394">
        <ele>66.438751</ele>
        <time>2020-06-01T08:54:43Z</time>
      </trkpt>
      <trkpt lat="49.28146" lon="1.19383">
        <ele>66.85405</ele>
        <time>2020-06-01T08:54:48Z</time>
      </trkpt>
      <trkpt lat="49.28131" lon="1.19379">
        <ele>66.463898</ele>
        <time>2020-06-01T08:54:51Z</time>
      </trkpt>
      <trkpt lat="49.28124" lon="1.19374">
        <ele>66.711983</ele>
        <time>2020-06-01T08:54:53Z</time>
      </trkpt>
      <trkpt lat="49.28122" lon="1.19365">
        <ele>67.682426</ele>
        <time>2020-06-01T08:54:55Z</time>
      </trkpt>
      <trkpt lat="49.28112" lon="1.19349">
        <ele>68.910011</ele>
        <time>2020-06-01T08:54:59Z</time>
      </trkpt>
      <trkpt lat="49.28102" lon="1.19327">
        <ele>70.011131</ele>
        <time>2020-06-01T08:55:08Z</time>
      </trkpt>
      <trkpt lat="49.28103" lon="1.19316">
        <ele>71.231125</ele>
        <time>2020-06-01T08:55:15Z</time>
      </trkpt>
      <trkpt lat="49.28106" lon="1.19305">
        <ele>72.840721</ele>
        <time>2020-06-01T08:55:18Z</time>
      </trkpt>
      <trkpt lat="49.28098" lon="1.19287">
        <ele>73.474251</ele>
        <time>2020-06-01T08:55:25Z</time>
      </trkpt>
      <trkpt lat="49.28072" lon="1.19233">
        <ele>75.973747</ele>
        <time>2020-06-01T08:55:37Z</time>
      </trkpt>
      <trkpt lat="49.28065" lon="1.19222">
        <ele>76.44175</ele>
        <time>2020-06-01T08:55:39Z</time>
      </trkpt>
      <trkpt lat="49.28054" lon="1.19207">
        <ele>76.847504</ele>
        <time>2020-06-01T08:55:45Z</time>
      </trkpt>
      <trkpt lat="49.28051" lon="1.19197">
        <ele>77.934586</ele>
        <time>2020-06-01T08:55:48Z</time>
      </trkpt>
      <trkpt lat="49.28043" lon="1.19183">
        <ele>78.9655</ele>
        <time>2020-06-01T08:55:55Z</time>
      </trkpt>
      <trkpt lat="49.28018" lon="1.19182">
        <ele>76.718613</ele>
        <time>2020-06-01T08:56:04Z</time>
      </trkpt>
      <trkpt lat="49.27985" lon="1.19179">
        <ele>76.528</ele>
        <time>2020-06-01T08:56:13Z</time>
      </trkpt>
      <trkpt lat="49.2797" lon="1.19181">
        <ele>75.498749</ele>
        <time>2020-06-01T08:56:16Z</time>
      </trkpt>
      <trkpt lat="49.27949" lon="1.1917">
        <ele>75.760002</ele>
        <time>2020-06-01T08:56:23Z</time>
      </trkpt>
      <trkpt lat="49.27899" lon="1.19151">
        <ele>74.234016</ele>
        <time>2020-06-01T08:56:31Z</time>
      </trkpt>
      <trkpt lat="49.2787" lon="1.19123">
        <ele>75.1278</ele>
        <time>2020-06-01T08:56:37Z</time>
      </trkpt>
      <trkpt lat="49.2779" lon="1.19088">
        <ele>71.302124</ele>
        <time>2020-06-01T08:56:47Z</time>
      </trkpt>
      <trkpt lat="49.27715" lon="1.19014">
        <ele>68.816628</ele>
        <time>2020-06-01T08:56:58Z</time>
      </trkpt>
      <trkpt lat="49.27709" lon="1.19005">
        <ele>68.320663</ele>
        <time>2020-06-01T08:56:59Z</time>
      </trkpt>
      <trkpt lat="49.27705" lon="1.18996">
        <ele>68.191498</ele>
        <time>2020-06-01T08:57:00Z</time>
      </trkpt>
      <trkpt lat="49.27703" lon="1.18974">
        <ele>69.281891</ele>
        <time>2020-06-01T08:57:02Z</time>
      </trkpt>
      <trkpt lat="49.27701" lon="1.18962">
        <ele>69.863922</ele>
        <time>2020-06-01T08:57:04Z</time>
      </trkpt>
      <trkpt lat="49.27691" lon="1.18954">
        <ele>68.767365</ele>
        <time>2020-06-01T08:57:37Z</time>
      </trkpt>
      <trkpt lat="49.27647" lon="1.1894">
        <ele>61.591545</ele>
        <time>2020-06-01T08:57:43Z</time>
      </trkpt>
      <trkpt lat="49.27643" lon="1.18934">
        <ele>60.930099</ele>
        <time>2020-06-01T08:57:44Z</time>
      </trkpt>
      <trkpt lat="49.27634" lon="1.18898">
        <ele>60.791576</ele>
        <time>2020-06-01T08:57:48Z</time>
      </trkpt>
      <trkpt lat="49.27605" lon="1.18856">
        <ele>58.1991</ele>
        <time>2020-06-01T08:57:53Z</time>
      </trkpt>
      <trkpt lat="49.27599" lon="1.1885">
        <ele>57.729038</ele>
        <time>2020-06-01T08:57:54Z</time>
      </trkpt>
      <trkpt lat="49.27593" lon="1.18849">
        <ele>56.983929</ele>
        <time>2020-06-01T08:57:55Z</time>
      </trkpt>
      <trkpt lat="49.27587" lon="1.18852">
        <ele>56.07975</ele>
        <time>2020-06-01T08:57:56Z</time>
      </trkpt>
      <trkpt lat="49.27569" lon="1.18858">
        <ele>53.921436</ele>
        <time>2020-06-01T08:58:02Z</time>
      </trkpt>
      <trkpt lat="49.27568" lon="1.18826">
        <ele>55.559063</ele>
        <time>2020-06-01T08:58:13Z</time>
      </trkpt>
      <trkpt lat="49.27565" lon="1.18815">
        <ele>56.012657</ele>
        <time>2020-06-01T08:58:15Z</time>
      </trkpt>
      <trkpt lat="49.27565" lon="1.18777">
        <ele>57.707901</ele>
        <time>2020-06-01T08:58:23Z</time>
      </trkpt>
      <trkpt lat="49.27559" lon="1.18732">
        <ele>58.992973</ele>
        <time>2020-06-01T08:58:32Z</time>
      </trkpt>
      <trkpt lat="49.27539" lon="1.18643">
        <ele>59.592201</ele>
        <time>2020-06-01T08:58:50Z</time>
      </trkpt>
      <trkpt lat="49.27523" lon="1.18631">
        <ele>58.487926</ele>
        <time>2020-06-01T08:58:58Z</time>
      </trkpt>
      <trkpt lat="49.27522" lon="1.18619">
        <ele>58.726524</ele>
        <time>2020-06-01T08:59:02Z</time>
      </trkpt>
      <trkpt lat="49.2751" lon="1.18602">
        <ele>59.850937</ele>
        <time>2020-06-01T08:59:13Z</time>
      </trkpt>
      <trkpt lat="49.27499" lon="1.18599">
        <ele>60.648655</ele>
        <time>2020-06-01T08:59:20Z</time>
      </trkpt>
      <trkpt lat="49.27484" lon="1.18604">
        <ele>61.700298</ele>
        <time>2020-06-01T08:59:27Z</time>
      </trkpt>
      <trkpt lat="49.27478" lon="1.18614">
        <ele>62.499538</ele>
        <time>2020-06-01T08:59:34Z</time>
      </trkpt>
      <trkpt lat="49.27472" lon="1.18613">
        <ele>63.695526</ele>
        <time>2020-06-01T08:59:45Z</time>
      </trkpt>
      <trkpt lat="49.2743" lon="1.18595">
        <ele>73.060654</ele>
        <time>2020-06-01T09:00:23Z</time>
      </trkpt>
      <trkpt lat="49.27408" lon="1.1859">
        <ele>76.680313</ele>
        <time>2020-06-01T09:00:39Z</time>
      </trkpt>
      <trkpt lat="49.27398" lon="1.18597">
        <ele>77.479996</ele>
        <time>2020-06-01T09:00:43Z</time>
      </trkpt>
      <trkpt lat="49.27381" lon="1.18605">
        <ele>78.062248</ele>
        <time>2020-06-01T09:00:49Z</time>
      </trkpt>
      <trkpt lat="49.27348" lon="1.18604">
        <ele>79.20195</ele>
        <time>2020-06-01T09:00:59Z</time>
      </trkpt>
      <trkpt lat="49.27325" lon="1.18606">
        <ele>79.015091</ele>
        <time>2020-06-01T09:01:06Z</time>
      </trkpt>
      <trkpt lat="49.27299" lon="1.18601">
        <ele>79.312241</ele>
        <time>2020-06-01T09:01:12Z</time>
      </trkpt>
      <trkpt lat="49.27264" lon="1.18572">
        <ele>78.370026</ele>
        <time>2020-06-01T09:01:23Z</time>
      </trkpt>
      <trkpt lat="49.27233" lon="1.18553">
        <ele>75.304207</ele>
        <time>2020-06-01T09:01:28Z</time>
      </trkpt>
      <trkpt lat="49.27222" lon="1.18544">
        <ele>73.957191</ele>
        <time>2020-06-01T09:01:30Z</time>
      </trkpt>
      <trkpt lat="49.2719" lon="1.18506">
        <ele>70.326248</ele>
        <time>2020-06-01T09:01:35Z</time>
      </trkpt>
      <trkpt lat="49.27165" lon="1.18444">
        <ele>69.774399</ele>
        <time>2020-06-01T09:01:42Z</time>
      </trkpt>
      <trkpt lat="49.27156" lon="1.18427">
        <ele>69.049919</ele>
        <time>2020-06-01T09:01:44Z</time>
      </trkpt>
      <trkpt lat="49.27128" lon="1.18409">
        <ele>63.55183</ele>
        <time>2020-06-01T09:01:48Z</time>
      </trkpt>
      <trkpt lat="49.27109" lon="1.18388">
        <ele>61.376949</ele>
        <time>2020-06-01T09:01:51Z</time>
      </trkpt>
      <trkpt lat="49.271" lon="1.18385">
        <ele>61.132401</ele>
        <time>2020-06-01T09:01:53Z</time>
      </trkpt>
      <trkpt lat="49.27089" lon="1.18393">
        <ele>60.059399</ele>
        <time>2020-06-01T09:01:55Z</time>
      </trkpt>
      <trkpt lat="49.27066" lon="1.18399">
        <ele>58.662788</ele>
        <time>2020-06-01T09:01:59Z</time>
      </trkpt>
      <trkpt lat="49.2706" lon="1.18399">
        <ele>58.680302</ele>
        <time>2020-06-01T09:02:02Z</time>
      </trkpt>
      <trkpt lat="49.27037" lon="1.18388">
        <ele>59.72818</ele>
        <time>2020-06-01T09:02:08Z</time>
      </trkpt>
      <trkpt lat="49.27006" lon="1.18366">
        <ele>59.737526</ele>
        <time>2020-06-01T09:02:13Z</time>
      </trkpt>
      <trkpt lat="49.26936" lon="1.18327">
        <ele>54.450001</ele>
        <time>2020-06-01T09:02:22Z</time>
      </trkpt>
      <trkpt lat="49.26924" lon="1.18323">
        <ele>54.145</ele>
        <time>2020-06-01T09:02:24Z</time>
      </trkpt>
      <trkpt lat="49.26906" lon="1.18321">
        <ele>53.462502</ele>
        <time>2020-06-01T09:02:27Z</time>
      </trkpt>
      <trkpt lat="49.26885" lon="1.18321">
        <ele>52.964333</ele>
        <time>2020-06-01T09:02:31Z</time>
      </trkpt>
      <trkpt lat="49.26754" lon="1.18256">
        <ele>49.666698</ele>
        <time>2020-06-01T09:02:52Z</time>
      </trkpt>
      <trkpt lat="49.26744" lon="1.18247">
        <ele>49.569424</ele>
        <time>2020-06-01T09:02:54Z</time>
      </trkpt>
      <trkpt lat="49.26738" lon="1.18236">
        <ele>49.901249</ele>
        <time>2020-06-01T09:02:58Z</time>
      </trkpt>
      <trkpt lat="49.26736" lon="1.18226">
        <ele>50.461052</ele>
        <time>2020-06-01T09:03:00Z</time>
      </trkpt>
      <trkpt lat="49.2673" lon="1.18218">
        <ele>50.469799</ele>
        <time>2020-06-01T09:03:02Z</time>
      </trkpt>
      <trkpt lat="49.267" lon="1.18193">
        <ele>50.0825</ele>
        <time>2020-06-01T09:03:08Z</time>
      </trkpt>
      <trkpt lat="49.2664" lon="1.18121">
        <ele>52.479149</ele>
        <time>2020-06-01T09:03:21Z</time>
      </trkpt>
      <trkpt lat="49.26627" lon="1.18099">
        <ele>53.568748</ele>
        <time>2020-06-01T09:03:25Z</time>
      </trkpt>
      <trkpt lat="49.26573" lon="1.1805">
        <ele>53.760262</ele>
        <time>2020-06-01T09:03:37Z</time>
      </trkpt>
      <trkpt lat="49.26567" lon="1.1804">
        <ele>53.776001</ele>
        <time>2020-06-01T09:03:39Z</time>
      </trkpt>
      <trkpt lat="49.26557" lon="1.17994">
        <ele>55.239079</ele>
        <time>2020-06-01T09:03:47Z</time>
      </trkpt>
      <trkpt lat="49.26555" lon="1.17979">
        <ele>55.896286</ele>
        <time>2020-06-01T09:03:50Z</time>
      </trkpt>
      <trkpt lat="49.2655" lon="1.17971">
        <ele>55.984577</ele>
        <time>2020-06-01T09:03:52Z</time>
      </trkpt>
      <trkpt lat="49.2654" lon="1.17936">
        <ele>57.309448</ele>
        <time>2020-06-01T09:04:00Z</time>
      </trkpt>
      <trkpt lat="49.26535" lon="1.17925">
        <ele>57.694553</ele>
        <time>2020-06-01T09:04:05Z</time>
      </trkpt>
      <trkpt lat="49.26529" lon="1.17919">
        <ele>57.880001</ele>
        <time>2020-06-01T09:04:09Z</time>
      </trkpt>
      <trkpt lat="49.26524" lon="1.17907">
        <ele>59.100391</ele>
        <time>2020-06-01T09:04:17Z</time>
      </trkpt>
      <trkpt lat="49.26524" lon="1.17896">
        <ele>60.160175</ele>
        <time>2020-06-01T09:04:22Z</time>
      </trkpt>
      <trkpt lat="49.26517" lon="1.17877">
        <ele>62.141876</ele>
        <time>2020-06-01T09:04:29Z</time>
      </trkpt>
      <trkpt lat="49.26514" lon="1.1787">
        <ele>62.862751</ele>
        <time>2020-06-01T09:04:32Z</time>
      </trkpt>
      <trkpt lat="49.26407" lon="1.17847">
        <ele>62.747501</ele>
        <time>2020-06-01T09:05:03Z</time>
      </trkpt>
      <trkpt lat="49.26334" lon="1.1782">
        <ele>59.983562</ele>
        <time>2020-06-01T09:05:15Z</time>
      </trkpt>
      <trkpt lat="49.26313" lon="1.17808">
        <ele>59.466751</ele>
        <time>2020-06-01T09:05:18Z</time>
      </trkpt>
      <trkpt lat="49.26269" lon="1.17795">
        <ele>59.425915</ele>
        <time>2020-06-01T09:05:26Z</time>
      </trkpt>
      <trkpt lat="49.2626" lon="1.17796">
        <ele>59.389797</ele>
        <time>2020-06-01T09:05:28Z</time>
      </trkpt>
      <trkpt lat="49.26151" lon="1.17748">
        <ele>61.890251</ele>
        <time>2020-06-01T09:05:55Z</time>
      </trkpt>
      <trkpt lat="49.26144" lon="1.17747">
        <ele>61.298695</ele>
        <time>2020-06-01T09:05:57Z</time>
      </trkpt>
      <trkpt lat="49.26134" lon="1.17743">
        <ele>60.748814</ele>
        <time>2020-06-01T09:06:05Z</time>
      </trkpt>
      <trkpt lat="49.26123" lon="1.17744">
        <ele>59.644852</ele>
        <time>2020-06-01T09:08:00Z</time>
      </trkpt>
      <trkpt lat="49.26118" lon="1.17727">
        <ele>59.508587</ele>
        <time>2020-06-01T09:08:05Z</time>
      </trkpt>
      <trkpt lat="49.26117" lon="1.17664">
        <ele>59.894688</ele>
        <time>2020-06-01T09:08:15Z</time>
      </trkpt>
      <trkpt lat="49.26113" lon="1.17652">
        <ele>59.196484</ele>
        <time>2020-06-01T09:08:19Z</time>
      </trkpt>
      <trkpt lat="49.26091" lon="1.17641">
        <ele>55.106861</ele>
        <time>2020-06-01T09:08:23Z</time>
      </trkpt>
      <trkpt lat="49.26081" lon="1.17631">
        <ele>53.374413</ele>
        <time>2020-06-01T09:08:25Z</time>
      </trkpt>
      <trkpt lat="49.26075" lon="1.17617">
        <ele>53.03828</ele>
        <time>2020-06-01T09:08:27Z</time>
      </trkpt>
      <trkpt lat="49.26069" lon="1.17608">
        <ele>53.178005</ele>
        <time>2020-06-01T09:08:29Z</time>
      </trkpt>
      <trkpt lat="49.26053" lon="1.17592">
        <ele>53.893749</ele>
        <time>2020-06-01T09:08:37Z</time>
      </trkpt>
      <trkpt lat="49.26049" lon="1.17581">
        <ele>54.485973</ele>
        <time>2020-06-01T09:08:42Z</time>
      </trkpt>
      <trkpt lat="49.26043" lon="1.17572">
        <ele>55.305763</ele>
        <time>2020-06-01T09:08:46Z</time>
      </trkpt>
      <trkpt lat="49.26017" lon="1.17519">
        <ele>60.145561</ele>
        <time>2020-06-01T09:09:13Z</time>
      </trkpt>
      <trkpt lat="49.26014" lon="1.17509">
        <ele>60.830002</ele>
        <time>2020-06-01T09:09:17Z</time>
      </trkpt>
      <trkpt lat="49.26007" lon="1.17499">
        <ele>61.524998</ele>
        <time>2020-06-01T09:09:32Z</time>
      </trkpt>
      <trkpt lat="49.25998" lon="1.17479">
        <ele>62.912502</ele>
        <time>2020-06-01T09:09:50Z</time>
      </trkpt>
      <trkpt lat="49.25993" lon="1.17473">
        <ele>63.372501</ele>
        <time>2020-06-01T09:09:53Z</time>
      </trkpt>
      <trkpt lat="49.25991" lon="1.17466">
        <ele>63.887501</ele>
        <time>2020-06-01T09:09:56Z</time>
      </trkpt>
      <trkpt lat="49.25977" lon="1.17446">
        <ele>65.564842</ele>
        <time>2020-06-01T09:10:06Z</time>
      </trkpt>
      <trkpt lat="49.25971" lon="1.17417">
        <ele>67.339867</ele>
        <time>2020-06-01T09:10:18Z</time>
      </trkpt>
      <trkpt lat="49.25962" lon="1.17404">
        <ele>68.309837</ele>
        <time>2020-06-01T09:10:26Z</time>
      </trkpt>
      <trkpt lat="49.25935" lon="1.17393">
        <ele>69.579376</ele>
        <time>2020-06-01T09:10:36Z</time>
      </trkpt>
      <trkpt lat="49.25928" lon="1.17392">
        <ele>69.815002</ele>
        <time>2020-06-01T09:10:39Z</time>
      </trkpt>
      <trkpt lat="49.25921" lon="1.17311">
        <ele>73.47805</ele>
        <time>2020-06-01T09:11:08Z</time>
      </trkpt>
      <trkpt lat="49.25919" lon="1.17303">
        <ele>73.828499</ele>
        <time>2020-06-01T09:11:11Z</time>
      </trkpt>
      <trkpt lat="49.25909" lon="1.17187">
        <ele>76.824371</ele>
        <time>2020-06-01T09:11:44Z</time>
      </trkpt>
      <trkpt lat="49.25914" lon="1.17125">
        <ele>78.46875</ele>
        <time>2020-06-01T09:12:00Z</time>
      </trkpt>
      <trkpt lat="49.25913" lon="1.17112">
        <ele>78.824997</ele>
        <time>2020-06-01T09:12:48Z</time>
      </trkpt>
      <trkpt lat="49.26072" lon="1.1713">
        <ele>76.327499</ele>
        <time>2020-06-01T09:13:23Z</time>
      </trkpt>
      <trkpt lat="49.26086" lon="1.17112">
        <ele>74.138329</ele>
        <time>2020-06-01T09:13:25Z</time>
      </trkpt>
      <trkpt lat="49.262" lon="1.1712">
        <ele>66.711357</ele>
        <time>2020-06-01T09:13:38Z</time>
      </trkpt>
      <trkpt lat="49.26211" lon="1.17122">
        <ele>68.823799</ele>
        <time>2020-06-01T09:13:46Z</time>
      </trkpt>
      <trkpt lat="49.26217" lon="1.17116">
        <ele>69.899879</ele>
        <time>2020-06-01T09:13:51Z</time>
      </trkpt>
      <trkpt lat="49.26223" lon="1.17048">
        <ele>69.919716</ele>
        <time>2020-06-01T09:14:02Z</time>
      </trkpt>
      <trkpt lat="49.26227" lon="1.17019">
        <ele>69.6203</ele>
        <time>2020-06-01T09:14:06Z</time>
      </trkpt>
      <trkpt lat="49.26234" lon="1.16996">
        <ele>69.182053</ele>
        <time>2020-06-01T09:14:10Z</time>
      </trkpt>
      <trkpt lat="49.26246" lon="1.16976">
        <ele>68.376778</ele>
        <time>2020-06-01T09:14:14Z</time>
      </trkpt>
      <trkpt lat="49.26355" lon="1.16881">
        <ele>70.246346</ele>
        <time>2020-06-01T09:14:49Z</time>
      </trkpt>
      <trkpt lat="49.26443" lon="1.16826">
        <ele>73.855499</ele>
        <time>2020-06-01T09:15:20Z</time>
      </trkpt>
      <trkpt lat="49.2647" lon="1.16804">
        <ele>75.7201</ele>
        <time>2020-06-01T09:15:34Z</time>
      </trkpt>
      <trkpt lat="49.26478" lon="1.16803">
        <ele>76.525398</ele>
        <time>2020-06-01T09:15:37Z</time>
      </trkpt>
      <trkpt lat="49.26513" lon="1.1677">
        <ele>79.236176</ele>
        <time>2020-06-01T09:15:51Z</time>
      </trkpt>
      <trkpt lat="49.26538" lon="1.16741">
        <ele>80.882477</ele>
        <time>2020-06-01T09:16:02Z</time>
      </trkpt>
      <trkpt lat="49.26585" lon="1.16659">
        <ele>83.197502</ele>
        <time>2020-06-01T09:16:27Z</time>
      </trkpt>
      <trkpt lat="49.26601" lon="1.1661">
        <ele>82.861687</ele>
        <time>2020-06-01T09:16:39Z</time>
      </trkpt>
      <trkpt lat="49.26606" lon="1.16601">
        <ele>83.247749</ele>
        <time>2020-06-01T09:16:42Z</time>
      </trkpt>
      <trkpt lat="49.26614" lon="1.16578">
        <ele>84.625</ele>
        <time>2020-06-01T09:16:49Z</time>
      </trkpt>
      <trkpt lat="49.26648" lon="1.16529">
        <ele>87.093178</ele>
        <time>2020-06-01T09:17:08Z</time>
      </trkpt>
      <trkpt lat="49.26676" lon="1.16486">
        <ele>88.491623</ele>
        <time>2020-06-01T09:17:25Z</time>
      </trkpt>
      <trkpt lat="49.26683" lon="1.1648">
        <ele>88.431953</ele>
        <time>2020-06-01T09:17:28Z</time>
      </trkpt>
      <trkpt lat="49.26692" lon="1.16465">
        <ele>88.262802</ele>
        <time>2020-06-01T09:17:36Z</time>
      </trkpt>
      <trkpt lat="49.26699" lon="1.16458">
        <ele>88.763237</ele>
        <time>2020-06-01T09:17:39Z</time>
      </trkpt>
      <trkpt lat="49.2671" lon="1.16449">
        <ele>89.709625</ele>
        <time>2020-06-01T09:17:45Z</time>
      </trkpt>
      <trkpt lat="49.26718" lon="1.16439">
        <ele>90.23156</ele>
        <time>2020-06-01T09:17:50Z</time>
      </trkpt>
      <trkpt lat="49.26724" lon="1.16434">
        <ele>90.453873</ele>
        <time>2020-06-01T09:17:52Z</time>
      </trkpt>
      <trkpt lat="49.26746" lon="1.16409">
        <ele>90.825752</ele>
        <time>2020-06-01T09:18:05Z</time>
      </trkpt>
      <trkpt lat="49.26759" lon="1.16398">
        <ele>91.807816</ele>
        <time>2020-06-01T09:18:10Z</time>
      </trkpt>
      <trkpt lat="49.26769" lon="1.16388">
        <ele>92.932655</ele>
        <time>2020-06-01T09:18:16Z</time>
      </trkpt>
      <trkpt lat="49.26776" lon="1.16376">
        <ele>93.561249</ele>
        <time>2020-06-01T09:18:18Z</time>
      </trkpt>
      <trkpt lat="49.26792" lon="1.16359">
        <ele>94.780815</ele>
        <time>2020-06-01T09:18:25Z</time>
      </trkpt>
      <trkpt lat="49.26835" lon="1.16293">
        <ele>98.077141</ele>
        <time>2020-06-01T09:18:54Z</time>
      </trkpt>
      <trkpt lat="49.26848" lon="1.16281">
        <ele>98.834419</ele>
        <time>2020-06-01T09:18:59Z</time>
      </trkpt>
      <trkpt lat="49.26854" lon="1.16275">
        <ele>98.809746</ele>
        <time>2020-06-01T09:19:02Z</time>
      </trkpt>
      <trkpt lat="49.26867" lon="1.16272">
        <ele>99.10141</ele>
        <time>2020-06-01T09:19:07Z</time>
      </trkpt>
      <trkpt lat="49.26896" lon="1.16246">
        <ele>101.298103</ele>
        <time>2020-06-01T09:19:20Z</time>
      </trkpt>
      <trkpt lat="49.26916" lon="1.16219">
        <ele>102.712059</ele>
        <time>2020-06-01T09:19:28Z</time>
      </trkpt>
      <trkpt lat="49.26919" lon="1.16211">
        <ele>102.672302</ele>
        <time>2020-06-01T09:19:32Z</time>
      </trkpt>
      <trkpt lat="49.26924" lon="1.16202">
        <ele>102.849411</ele>
        <time>2020-06-01T09:19:36Z</time>
      </trkpt>
      <trkpt lat="49.26936" lon="1.1619">
        <ele>103.252251</ele>
        <time>2020-06-01T09:19:45Z</time>
      </trkpt>
      <trkpt lat="49.26943" lon="1.16186">
        <ele>103.982025</ele>
        <time>2020-06-01T09:19:50Z</time>
      </trkpt>
      <trkpt lat="49.26972" lon="1.1616">
        <ele>106.883247</ele>
        <time>2020-06-01T09:20:04Z</time>
      </trkpt>
      <trkpt lat="49.26978" lon="1.16147">
        <ele>107.643875</ele>
        <time>2020-06-01T09:20:09Z</time>
      </trkpt>
      <trkpt lat="49.2699" lon="1.16136">
        <ele>108.489563</ele>
        <time>2020-06-01T09:20:17Z</time>
      </trkpt>
      <trkpt lat="49.26994" lon="1.16129">
        <ele>108.595345</ele>
        <time>2020-06-01T09:20:21Z</time>
      </trkpt>
      <trkpt lat="49.27001" lon="1.16123">
        <ele>108.820091</ele>
        <time>2020-06-01T09:20:25Z</time>
      </trkpt>
      <trkpt lat="49.27011" lon="1.16108">
        <ele>110.078278</ele>
        <time>2020-06-01T09:20:32Z</time>
      </trkpt>
      <trkpt lat="49.27014" lon="1.16101">
        <ele>110.611275</ele>
        <time>2020-06-01T09:20:36Z</time>
      </trkpt>
      <trkpt lat="49.27051" lon="1.16069">
        <ele>114.218513</ele>
        <time>2020-06-01T09:20:53Z</time>
      </trkpt>
      <trkpt lat="49.27055" lon="1.16058">
        <ele>114.485626</ele>
        <time>2020-06-01T09:20:57Z</time>
      </trkpt>
      <trkpt lat="49.27067" lon="1.16045">
        <ele>115.492172</ele>
        <time>2020-06-01T09:21:05Z</time>
      </trkpt>
      <trkpt lat="49.27089" lon="1.16012">
        <ele>117.595749</ele>
        <time>2020-06-01T09:21:22Z</time>
      </trkpt>
      <trkpt lat="49.27102" lon="1.16002">
        <ele>118.345657</ele>
        <time>2020-06-01T09:21:29Z</time>
      </trkpt>
      <trkpt lat="49.27108" lon="1.15994">
        <ele>118.604141</ele>
        <time>2020-06-01T09:21:32Z</time>
      </trkpt>
      <trkpt lat="49.27149" lon="1.15953">
        <ele>120.389999</ele>
        <time>2020-06-01T09:21:58Z</time>
      </trkpt>
      <trkpt lat="49.27178" lon="1.15955">
        <ele>121.709999</ele>
        <time>2020-06-01T09:22:12Z</time>
      </trkpt>
      <trkpt lat="49.27184" lon="1.1595">
        <ele>121.970001</ele>
        <time>2020-06-01T09:22:14Z</time>
      </trkpt>
      <trkpt lat="49.27207" lon="1.15939">
        <ele>122.69355</ele>
        <time>2020-06-01T09:22:22Z</time>
      </trkpt>
      <trkpt lat="49.27208" lon="1.15925">
        <ele>122.619652</ele>
        <time>2020-06-01T09:22:27Z</time>
      </trkpt>
      <trkpt lat="49.27195" lon="1.15926">
        <ele>122.294449</ele>
        <time>2020-06-01T09:22:38Z</time>
      </trkpt>
      <trkpt lat="49.27192" lon="1.15917">
        <ele>122.187851</ele>
        <time>2020-06-01T09:26:08Z</time>
      </trkpt>
      <trkpt lat="49.27186" lon="1.15908">
        <ele>122.004997</ele>
        <time>2020-06-01T09:26:11Z</time>
      </trkpt>
      <trkpt lat="49.27127" lon="1.15889">
        <ele>119.547752</ele>
        <time>2020-06-01T09:26:22Z</time>
      </trkpt>
      <trkpt lat="49.27118" lon="1.15868">
        <ele>119.357864</ele>
        <time>2020-06-01T09:26:24Z</time>
      </trkpt>
      <trkpt lat="49.2688" lon="1.15761">
        <ele>122.276253</ele>
        <time>2020-06-01T09:27:16Z</time>
      </trkpt>
      <trkpt lat="49.26927" lon="1.15574">
        <ele>123.980003</ele>
        <time>2020-06-01T09:27:47Z</time>
      </trkpt>
      <trkpt lat="49.26951" lon="1.15413">
        <ele>125.295876</ele>
        <time>2020-06-01T09:28:14Z</time>
      </trkpt>
      <trkpt lat="49.2696" lon="1.15356">
        <ele>126.019829</ele>
        <time>2020-06-01T09:28:24Z</time>
      </trkpt>
      <trkpt lat="49.26962" lon="1.15344">
        <ele>126.053009</ele>
        <time>2020-06-01T09:28:26Z</time>
      </trkpt>
      <trkpt lat="49.26961" lon="1.15333">
        <ele>126.070686</ele>
        <time>2020-06-01T09:28:28Z</time>
      </trkpt>
      <trkpt lat="49.26925" lon="1.153">
        <ele>125.986084</ele>
        <time>2020-06-01T09:29:03Z</time>
      </trkpt>
      <trkpt lat="49.2685" lon="1.15258">
        <ele>124.695</ele>
        <time>2020-06-01T09:29:22Z</time>
      </trkpt>
      <trkpt lat="49.26723" lon="1.15201">
        <ele>122.885002</ele>
        <time>2020-06-01T09:29:55Z</time>
      </trkpt>
      <trkpt lat="49.26607" lon="1.15141">
        <ele>120.305</ele>
        <time>2020-06-01T09:30:28Z</time>
      </trkpt>
      <trkpt lat="49.26501" lon="1.15092">
        <ele>118.959999</ele>
        <time>2020-06-01T09:30:55Z</time>
      </trkpt>
      <trkpt lat="49.26374" lon="1.15029">
        <ele>114.201874</ele>
        <time>2020-06-01T09:31:23Z</time>
      </trkpt>
      <trkpt lat="49.26364" lon="1.15028">
        <ele>113.550629</ele>
        <time>2020-06-01T09:31:25Z</time>
      </trkpt>
      <trkpt lat="49.26352" lon="1.15029">
        <ele>112.481247</ele>
        <time>2020-06-01T09:31:27Z</time>
      </trkpt>
      <trkpt lat="49.26344" lon="1.15025">
        <ele>111.778748</ele>
        <time>2020-06-01T09:31:29Z</time>
      </trkpt>
      <trkpt lat="49.26342" lon="1.15016">
        <ele>111.431252</ele>
        <time>2020-06-01T09:31:31Z</time>
      </trkpt>
      <trkpt lat="49.26335" lon="1.14969">
        <ele>110.209541</ele>
        <time>2020-06-01T09:31:37Z</time>
      </trkpt>
      <trkpt lat="49.26322" lon="1.14957">
        <ele>108.506096</ele>
        <time>2020-06-01T09:31:39Z</time>
      </trkpt>
      <trkpt lat="49.26313" lon="1.14714">
        <ele>113.832253</ele>
        <time>2020-06-01T09:32:10Z</time>
      </trkpt>
      <trkpt lat="49.26301" lon="1.14552">
        <ele>119.369598</ele>
        <time>2020-06-01T09:32:38Z</time>
      </trkpt>
      <trkpt lat="49.26302" lon="1.1454">
        <ele>119.645935</ele>
        <time>2020-06-01T09:32:41Z</time>
      </trkpt>
      <trkpt lat="49.26298" lon="1.14502">
        <ele>120.304008</ele>
        <time>2020-06-01T09:32:47Z</time>
      </trkpt>
      <trkpt lat="49.26284" lon="1.14479">
        <ele>120.411247</ele>
        <time>2020-06-01T09:32:51Z</time>
      </trkpt>
      <trkpt lat="49.26203" lon="1.14364">
        <ele>120.265327</ele>
        <time>2020-06-01T09:33:15Z</time>
      </trkpt>
      <trkpt lat="49.26202" lon="1.14354">
        <ele>120.460571</ele>
        <time>2020-06-01T09:34:24Z</time>
      </trkpt>
      <trkpt lat="49.26182" lon="1.14349">
        <ele>120.0215</ele>
        <time>2020-06-01T09:34:56Z</time>
      </trkpt>
      <trkpt lat="49.2616" lon="1.14351">
        <ele>119.5597</ele>
        <time>2020-06-01T09:35:00Z</time>
      </trkpt>
      <trkpt lat="49.26148" lon="1.14356">
        <ele>119.2425</ele>
        <time>2020-06-01T09:35:02Z</time>
      </trkpt>
      <trkpt lat="49.26122" lon="1.14384">
        <ele>118.00766</ele>
        <time>2020-06-01T09:35:08Z</time>
      </trkpt>
      <trkpt lat="49.26099" lon="1.14401">
        <ele>117.402374</ele>
        <time>2020-06-01T09:35:14Z</time>
      </trkpt>
      <trkpt lat="49.26091" lon="1.14403">
        <ele>117.318748</ele>
        <time>2020-06-01T09:35:16Z</time>
      </trkpt>
      <trkpt lat="49.25807" lon="1.14293">
        <ele>116.707161</ele>
        <time>2020-06-01T09:36:14Z</time>
      </trkpt>
      <trkpt lat="49.25804" lon="1.14278">
        <ele>116.785416</ele>
        <time>2020-06-01T09:36:15Z</time>
      </trkpt>
      <trkpt lat="49.25603" lon="1.14214">
        <ele>111.408745</ele>
        <time>2020-06-01T09:36:47Z</time>
      </trkpt>
      <trkpt lat="49.25553" lon="1.1418">
        <ele>111.749374</ele>
        <time>2020-06-01T09:37:01Z</time>
      </trkpt>
      <trkpt lat="49.2557" lon="1.14187">
        <ele>111.649376</ele>
        <time>2020-06-01T09:37:08Z</time>
      </trkpt>
      <trkpt lat="49.25577" lon="1.14189">
        <ele>111.623123</ele>
        <time>2020-06-01T09:37:10Z</time>
      </trkpt>
      <trkpt lat="49.25585" lon="1.14187">
        <ele>111.642502</ele>
        <time>2020-06-01T09:37:13Z</time>
      </trkpt>
      <trkpt lat="49.25594" lon="1.14068">
        <ele>113.003761</ele>
        <time>2020-06-01T09:37:33Z</time>
      </trkpt>
      <trkpt lat="49.25611" lon="1.13926">
        <ele>114.439377</ele>
        <time>2020-06-01T09:37:55Z</time>
      </trkpt>
      <trkpt lat="49.25617" lon="1.13908">
        <ele>114.695</ele>
        <time>2020-06-01T09:37:58Z</time>
      </trkpt>
      <trkpt lat="49.25623" lon="1.13871">
        <ele>115.236252</ele>
        <time>2020-06-01T09:38:07Z</time>
      </trkpt>
      <trkpt lat="49.25623" lon="1.1386">
        <ele>115.390625</ele>
        <time>2020-06-01T09:38:09Z</time>
      </trkpt>
      <trkpt lat="49.25642" lon="1.13783">
        <ele>116.506248</ele>
        <time>2020-06-01T09:38:23Z</time>
      </trkpt>
      <trkpt lat="49.25657" lon="1.13731">
        <ele>117.267502</ele>
        <time>2020-06-01T09:38:34Z</time>
      </trkpt>
      <trkpt lat="49.25664" lon="1.13676">
        <ele>118.058746</ele>
        <time>2020-06-01T09:38:44Z</time>
      </trkpt>
      <trkpt lat="49.25658" lon="1.13672">
        <ele>118.128128</ele>
        <time>2020-06-01T09:38:47Z</time>
      </trkpt>
      <trkpt lat="49.25663" lon="1.13645">
        <ele>118.515625</ele>
        <time>2020-06-01T09:38:52Z</time>
      </trkpt>
      <trkpt lat="49.25689" lon="1.13453">
        <ele>121.305626</ele>
        <time>2020-06-01T09:39:22Z</time>
      </trkpt>
      <trkpt lat="49.25692" lon="1.13426">
        <ele>121.695</ele>
        <time>2020-06-01T09:39:26Z</time>
      </trkpt>
      <trkpt lat="49.25702" lon="1.13393">
        <ele>122</ele>
        <time>2020-06-01T09:39:32Z</time>
      </trkpt>
      <trkpt lat="49.25704" lon="1.13382">
        <ele>122</ele>
        <time>2020-06-01T09:39:34Z</time>
      </trkpt>
      <trkpt lat="49.25701" lon="1.13367">
        <ele>122</ele>
        <time>2020-06-01T09:39:39Z</time>
      </trkpt>
      <trkpt lat="49.25692" lon="1.13357">
        <ele>122</ele>
        <time>2020-06-01T09:40:04Z</time>
      </trkpt>
      <trkpt lat="49.2554" lon="1.13286">
        <ele>120.185623</ele>
        <time>2020-06-01T09:40:42Z</time>
      </trkpt>
      <trkpt lat="49.25531" lon="1.13281">
        <ele>119.903122</ele>
        <time>2020-06-01T09:40:44Z</time>
      </trkpt>
      <trkpt lat="49.25524" lon="1.13272">
        <ele>119.629539</ele>
        <time>2020-06-01T09:40:47Z</time>
      </trkpt>
      <trkpt lat="49.25527" lon="1.13248">
        <ele>119.570602</ele>
        <time>2020-06-01T09:40:53Z</time>
      </trkpt>
      <trkpt lat="49.25541" lon="1.13178">
        <ele>119.662498</ele>
        <time>2020-06-01T09:41:01Z</time>
      </trkpt>
      <trkpt lat="49.25534" lon="1.13166">
        <ele>119.1875</ele>
        <time>2020-06-01T09:41:02Z</time>
      </trkpt>
      <trkpt lat="49.25648" lon="1.12577">
        <ele>116.525002</ele>
        <time>2020-06-01T09:42:05Z</time>
      </trkpt>
      <trkpt lat="49.25722" lon="1.12201">
        <ele>114.585899</ele>
        <time>2020-06-01T09:42:43Z</time>
      </trkpt>
      <trkpt lat="49.25724" lon="1.1219">
        <ele>114.417374</ele>
        <time>2020-06-01T09:42:44Z</time>
      </trkpt>
      <trkpt lat="49.25732" lon="1.12175">
        <ele>114.139687</ele>
        <time>2020-06-01T09:42:46Z</time>
      </trkpt>
      <trkpt lat="49.25738" lon="1.12169">
        <ele>114.012184</ele>
        <time>2020-06-01T09:42:47Z</time>
      </trkpt>
      <trkpt lat="49.25771" lon="1.12166">
        <ele>113.897102</ele>
        <time>2020-06-01T09:42:52Z</time>
      </trkpt>
      <trkpt lat="49.25782" lon="1.12162">
        <ele>113.719452</ele>
        <time>2020-06-01T09:42:54Z</time>
      </trkpt>
      <trkpt lat="49.25836" lon="1.121">
        <ele>109.302498</ele>
        <time>2020-06-01T09:43:04Z</time>
      </trkpt>
      <trkpt lat="49.25848" lon="1.12094">
        <ele>108.923233</ele>
        <time>2020-06-01T09:43:08Z</time>
      </trkpt>
      <trkpt lat="49.25852" lon="1.12085">
        <ele>108.749718</ele>
        <time>2020-06-01T09:43:10Z</time>
      </trkpt>
      <trkpt lat="49.25847" lon="1.12048">
        <ele>107.71534</ele>
        <time>2020-06-01T09:43:18Z</time>
      </trkpt>
      <trkpt lat="49.25847" lon="1.11997">
        <ele>108.577774</ele>
        <time>2020-06-01T09:43:29Z</time>
      </trkpt>
      <trkpt lat="49.25851" lon="1.11979">
        <ele>109.463875</ele>
        <time>2020-06-01T09:43:33Z</time>
      </trkpt>
      <trkpt lat="49.25849" lon="1.11972">
        <ele>109.653801</ele>
        <time>2020-06-01T09:44:29Z</time>
      </trkpt>
      <trkpt lat="49.25849" lon="1.11962">
        <ele>110.038002</ele>
        <time>2020-06-01T09:44:48Z</time>
      </trkpt>
      <trkpt lat="49.25861" lon="1.11928">
        <ele>111.629868</ele>
        <time>2020-06-01T09:44:56Z</time>
      </trkpt>
      <trkpt lat="49.25895" lon="1.11745">
        <ele>116</ele>
        <time>2020-06-01T09:45:27Z</time>
      </trkpt>
      <trkpt lat="49.25931" lon="1.1156">
        <ele>117</ele>
        <time>2020-06-01T09:45:58Z</time>
      </trkpt>
      <trkpt lat="49.25968" lon="1.11422">
        <ele>117</ele>
        <time>2020-06-01T09:46:21Z</time>
      </trkpt>
      <trkpt lat="49.25993" lon="1.1136">
        <ele>117.842186</ele>
        <time>2020-06-01T09:46:33Z</time>
      </trkpt>
      <trkpt lat="49.25995" lon="1.11352">
        <ele>117.911942</ele>
        <time>2020-06-01T09:46:35Z</time>
      </trkpt>
      <trkpt lat="49.25993" lon="1.11345">
        <ele>117.956329</ele>
        <time>2020-06-01T09:46:37Z</time>
      </trkpt>
      <trkpt lat="49.25858" lon="1.11275">
        <ele>116.02578</ele>
        <time>2020-06-01T09:47:11Z</time>
      </trkpt>
      <trkpt lat="49.25846" lon="1.11259">
        <ele>115.420059</ele>
        <time>2020-06-01T09:47:24Z</time>
      </trkpt>
      <trkpt lat="49.25799" lon="1.11188">
        <ele>113.440002</ele>
        <time>2020-06-01T09:47:37Z</time>
      </trkpt>
      <trkpt lat="49.25786" lon="1.11179">
        <ele>112.839996</ele>
        <time>2020-06-01T09:47:41Z</time>
      </trkpt>
      <trkpt lat="49.2578" lon="1.1118">
        <ele>112.580002</ele>
        <time>2020-06-01T09:47:45Z</time>
      </trkpt>
      <trkpt lat="49.25777" lon="1.11201">
        <ele>112.440002</ele>
        <time>2020-06-01T09:47:51Z</time>
      </trkpt>
      <trkpt lat="49.2578" lon="1.11209">
        <ele>112.57</ele>
        <time>2020-06-01T09:48:01Z</time>
      </trkpt>
      <trkpt lat="49.25742" lon="1.11309">
        <ele>111.22477</ele>
        <time>2020-06-01T09:48:18Z</time>
      </trkpt>
      <trkpt lat="49.25733" lon="1.11311">
        <ele>110.620384</ele>
        <time>2020-06-01T09:48:19Z</time>
      </trkpt>
      <trkpt lat="49.25713" lon="1.11365">
        <ele>109.059998</ele>
        <time>2020-06-01T09:48:27Z</time>
      </trkpt>
      <trkpt lat="49.25593" lon="1.11567">
        <ele>101.935028</ele>
        <time>2020-06-01T09:48:54Z</time>
      </trkpt>
      <trkpt lat="49.25583" lon="1.11592">
        <ele>101.225159</ele>
        <time>2020-06-01T09:48:57Z</time>
      </trkpt>
      <trkpt lat="49.2555" lon="1.11813">
        <ele>94.404953</ele>
        <time>2020-06-01T09:49:19Z</time>
      </trkpt>
      <trkpt lat="49.25516" lon="1.11909">
        <ele>90.887497</ele>
        <time>2020-06-01T09:49:28Z</time>
      </trkpt>
      <trkpt lat="49.25505" lon="1.11923">
        <ele>92.138611</ele>
        <time>2020-06-01T09:49:30Z</time>
      </trkpt>
      <trkpt lat="49.25465" lon="1.1194">
        <ele>91.313248</ele>
        <time>2020-06-01T09:49:36Z</time>
      </trkpt>
      <trkpt lat="49.25316" lon="1.1196">
        <ele>86.650627</ele>
        <time>2020-06-01T09:49:57Z</time>
      </trkpt>
      <trkpt lat="49.25282" lon="1.11977">
        <ele>86.037834</ele>
        <time>2020-06-01T09:50:02Z</time>
      </trkpt>
      <trkpt lat="49.25149" lon="1.121">
        <ele>85.271004</ele>
        <time>2020-06-01T09:50:24Z</time>
      </trkpt>
      <trkpt lat="49.25073" lon="1.12148">
        <ele>83.77095</ele>
        <time>2020-06-01T09:50:36Z</time>
      </trkpt>
      <trkpt lat="49.25018" lon="1.12213">
        <ele>82.044403</ele>
        <time>2020-06-01T09:50:46Z</time>
      </trkpt>
      <trkpt lat="49.2499" lon="1.1226">
        <ele>79.176888</ele>
        <time>2020-06-01T09:50:52Z</time>
      </trkpt>
      <trkpt lat="49.24982" lon="1.12293">
        <ele>80.220985</ele>
        <time>2020-06-01T09:50:56Z</time>
      </trkpt>
      <trkpt lat="49.2498" lon="1.1235">
        <ele>80.355064</ele>
        <time>2020-06-01T09:51:02Z</time>
      </trkpt>
      <trkpt lat="49.24981" lon="1.12363">
        <ele>79.938698</ele>
        <time>2020-06-01T09:51:37Z</time>
      </trkpt>
      <trkpt lat="49.25033" lon="1.12562">
        <ele>77.052849</ele>
        <time>2020-06-01T09:52:07Z</time>
      </trkpt>
      <trkpt lat="49.25045" lon="1.12649">
        <ele>76.241249</ele>
        <time>2020-06-01T09:52:17Z</time>
      </trkpt>
      <trkpt lat="49.25045" lon="1.12924">
        <ele>75.219376</ele>
        <time>2020-06-01T09:52:46Z</time>
      </trkpt>
      <trkpt lat="49.25039" lon="1.12961">
        <ele>76.177689</ele>
        <time>2020-06-01T09:52:50Z</time>
      </trkpt>
      <trkpt lat="49.25031" lon="1.12987">
        <ele>76.690315</ele>
        <time>2020-06-01T09:52:53Z</time>
      </trkpt>
      <trkpt lat="49.24988" lon="1.13032">
        <ele>73.425797</ele>
        <time>2020-06-01T09:53:01Z</time>
      </trkpt>
      <trkpt lat="49.24973" lon="1.13057">
        <ele>73.965446</ele>
        <time>2020-06-01T09:53:04Z</time>
      </trkpt>
      <trkpt lat="49.24954" lon="1.13095">
        <ele>73.9039</ele>
        <time>2020-06-01T09:53:09Z</time>
      </trkpt>
      <trkpt lat="49.24932" lon="1.1312">
        <ele>72.492401</ele>
        <time>2020-06-01T09:53:13Z</time>
      </trkpt>
      <trkpt lat="49.24898" lon="1.1319">
        <ele>69.467476</ele>
        <time>2020-06-01T09:53:21Z</time>
      </trkpt>
      <trkpt lat="49.24885" lon="1.13213">
        <ele>67.484749</ele>
        <time>2020-06-01T09:53:24Z</time>
      </trkpt>
      <trkpt lat="49.24865" lon="1.13344">
        <ele>65.124374</ele>
        <time>2020-06-01T09:53:37Z</time>
      </trkpt>
      <trkpt lat="49.24863" lon="1.13362">
        <ele>65.469177</ele>
        <time>2020-06-01T09:53:39Z</time>
      </trkpt>
      <trkpt lat="49.24951" lon="1.13549">
        <ele>64.878822</ele>
        <time>2020-06-01T09:54:00Z</time>
      </trkpt>
      <trkpt lat="49.25012" lon="1.13653">
        <ele>63.449799</ele>
        <time>2020-06-01T09:54:13Z</time>
      </trkpt>
      <trkpt lat="49.25034" lon="1.13714">
        <ele>63.447174</ele>
        <time>2020-06-01T09:54:20Z</time>
      </trkpt>
      <trkpt lat="49.25041" lon="1.138">
        <ele>62.865311</ele>
        <time>2020-06-01T09:54:28Z</time>
      </trkpt>
      <trkpt lat="49.25038" lon="1.13844">
        <ele>62.958687</ele>
        <time>2020-06-01T09:54:33Z</time>
      </trkpt>
      <trkpt lat="49.25022" lon="1.139">
        <ele>62.520462</ele>
        <time>2020-06-01T09:54:45Z</time>
      </trkpt>
      <trkpt lat="49.25016" lon="1.13913">
        <ele>62.438873</ele>
        <time>2020-06-01T09:54:48Z</time>
      </trkpt>
      <trkpt lat="49.25008" lon="1.13919">
        <ele>61.765484</ele>
        <time>2020-06-01T09:55:25Z</time>
      </trkpt>
      <trkpt lat="49.25003" lon="1.13914">
        <ele>61.558437</ele>
        <time>2020-06-01T09:55:49Z</time>
      </trkpt>
      <trkpt lat="49.25003" lon="1.1393">
        <ele>62.101719</ele>
        <time>2020-06-01T09:56:23Z</time>
      </trkpt>
      <trkpt lat="49.25002" lon="1.13945">
        <ele>62.570313</ele>
        <time>2020-06-01T09:56:25Z</time>
      </trkpt>
      <trkpt lat="49.2498" lon="1.13987">
        <ele>62.241405</ele>
        <time>2020-06-01T09:56:31Z</time>
      </trkpt>
      <trkpt lat="49.24977" lon="1.13997">
        <ele>62.378281</ele>
        <time>2020-06-01T09:56:32Z</time>
      </trkpt>
      <trkpt lat="49.24878" lon="1.14262">
        <ele>59.448658</ele>
        <time>2020-06-01T09:57:03Z</time>
      </trkpt>
      <trkpt lat="49.24874" lon="1.14276">
        <ele>59.189049</ele>
        <time>2020-06-01T09:57:05Z</time>
      </trkpt>
      <trkpt lat="49.24916" lon="1.14587">
        <ele>58.995651</ele>
        <time>2020-06-01T09:57:35Z</time>
      </trkpt>
      <trkpt lat="49.24902" lon="1.14923">
        <ele>53.645</ele>
        <time>2020-06-01T09:58:06Z</time>
      </trkpt>
      <trkpt lat="49.24896" lon="1.14993">
        <ele>51.959862</ele>
        <time>2020-06-01T09:58:13Z</time>
      </trkpt>
      <trkpt lat="49.24908" lon="1.15242">
        <ele>56.57375</ele>
        <time>2020-06-01T09:58:36Z</time>
      </trkpt>
      <trkpt lat="49.24906" lon="1.15261">
        <ele>56.595001</ele>
        <time>2020-06-01T09:58:38Z</time>
      </trkpt>
      <trkpt lat="49.24902" lon="1.15276">
        <ele>55.822498</ele>
        <time>2020-06-01T09:58:40Z</time>
      </trkpt>
      <trkpt lat="49.24852" lon="1.15364">
        <ele>53.747417</ele>
        <time>2020-06-01T09:58:50Z</time>
      </trkpt>
      <trkpt lat="49.24825" lon="1.15394">
        <ele>54.19915</ele>
        <time>2020-06-01T09:58:55Z</time>
      </trkpt>
      <trkpt lat="49.24713" lon="1.15471">
        <ele>51.174721</ele>
        <time>2020-06-01T09:59:13Z</time>
      </trkpt>
      <trkpt lat="49.24638" lon="1.15483">
        <ele>44.70335</ele>
        <time>2020-06-01T09:59:22Z</time>
      </trkpt>
      <trkpt lat="49.246" lon="1.15512">
        <ele>44.930698</ele>
        <time>2020-06-01T09:59:28Z</time>
      </trkpt>
      <trkpt lat="49.24514" lon="1.1569">
        <ele>42.846725</ele>
        <time>2020-06-01T09:59:48Z</time>
      </trkpt>
      <trkpt lat="49.24444" lon="1.16023">
        <ele>35.37355</ele>
        <time>2020-06-01T10:00:19Z</time>
      </trkpt>
      <trkpt lat="49.24435" lon="1.16076">
        <ele>34.925774</ele>
        <time>2020-06-01T10:00:24Z</time>
      </trkpt>
      <trkpt lat="49.24435" lon="1.16096">
        <ele>34.564999</ele>
        <time>2020-06-01T10:00:25Z</time>
      </trkpt>
      <trkpt lat="49.24499" lon="1.1634">
        <ele>32.279724</ele>
        <time>2020-06-01T10:00:56Z</time>
      </trkpt>
      <trkpt lat="49.24514" lon="1.16521">
        <ele>32.099998</ele>
        <time>2020-06-01T10:01:14Z</time>
      </trkpt>
      <trkpt lat="49.24515" lon="1.16556">
        <ele>32.224998</ele>
        <time>2020-06-01T10:01:18Z</time>
      </trkpt>
      <trkpt lat="49.24522" lon="1.16598">
        <ele>32.779392</ele>
        <time>2020-06-01T10:01:22Z</time>
      </trkpt>
      <trkpt lat="49.24528" lon="1.16625">
        <ele>32.986649</ele>
        <time>2020-06-01T10:01:26Z</time>
      </trkpt>
      <trkpt lat="49.24552" lon="1.1669">
        <ele>33.101376</ele>
        <time>2020-06-01T10:01:46Z</time>
      </trkpt>
      <trkpt lat="49.24598" lon="1.16778">
        <ele>31.380131</ele>
        <time>2020-06-01T10:02:04Z</time>
      </trkpt>
      <trkpt lat="49.24689" lon="1.16903">
        <ele>32.633251</ele>
        <time>2020-06-01T10:02:25Z</time>
      </trkpt>
      <trkpt lat="49.24729" lon="1.16997">
        <ele>32.35725</ele>
        <time>2020-06-01T10:02:35Z</time>
      </trkpt>
      <trkpt lat="49.24742" lon="1.17073">
        <ele>31.156107</ele>
        <time>2020-06-01T10:02:41Z</time>
      </trkpt>
      <trkpt lat="49.24766" lon="1.1738">
        <ele>29.042269</ele>
        <time>2020-06-01T10:03:16Z</time>
      </trkpt>
      <trkpt lat="49.24768" lon="1.17381">
        <ele>29.214813</ele>
        <time>2020-06-01T10:06:09Z</time>
      </trkpt>
      <trkpt lat="49.24765" lon="1.17398">
        <ele>28.50728</ele>
        <time>2020-06-01T10:06:13Z</time>
      </trkpt>
      <trkpt lat="49.24762" lon="1.17406">
        <ele>28.05995</ele>
        <time>2020-06-01T10:06:15Z</time>
      </trkpt>
      <trkpt lat="49.24767" lon="1.17415">
        <ele>28.565962</ele>
        <time>2020-06-01T10:06:18Z</time>
      </trkpt>
      <trkpt lat="49.24782" lon="1.17428">
        <ele>29.810705</ele>
        <time>2020-06-01T10:06:22Z</time>
      </trkpt>
      <trkpt lat="49.24905" lon="1.17462">
        <ele>35.048248</ele>
        <time>2020-06-01T10:06:52Z</time>
      </trkpt>
      <trkpt lat="49.24947" lon="1.17471">
        <ele>36.709251</ele>
        <time>2020-06-01T10:07:05Z</time>
      </trkpt>
      <trkpt lat="49.24959" lon="1.17472">
        <ele>37.213749</ele>
        <time>2020-06-01T10:07:09Z</time>
      </trkpt>
      <trkpt lat="49.25058" lon="1.17504">
        <ele>42.262589</ele>
        <time>2020-06-01T10:07:41Z</time>
      </trkpt>
      <trkpt lat="49.2512" lon="1.1752">
        <ele>44.3475</ele>
        <time>2020-06-01T10:08:03Z</time>
      </trkpt>
      <trkpt lat="49.25206" lon="1.1755">
        <ele>47.322498</ele>
        <time>2020-06-01T10:08:29Z</time>
      </trkpt>
      <trkpt lat="49.25216" lon="1.17558">
        <ele>47.244999</ele>
        <time>2020-06-01T10:08:32Z</time>
      </trkpt>
      <trkpt lat="49.2522" lon="1.17566">
        <ele>46.967499</ele>
        <time>2020-06-01T10:08:34Z</time>
      </trkpt>
      <trkpt lat="49.25223" lon="1.17584">
        <ele>46.0275</ele>
        <time>2020-06-01T10:08:38Z</time>
      </trkpt>
      <trkpt lat="49.25223" lon="1.17596">
        <ele>45.327499</ele>
        <time>2020-06-01T10:08:40Z</time>
      </trkpt>
      <trkpt lat="49.25145" lon="1.1794">
        <ele>33.017532</ele>
        <time>2020-06-01T10:09:11Z</time>
      </trkpt>
      <trkpt lat="49.25123" lon="1.18034">
        <ele>31.739374</ele>
        <time>2020-06-01T10:09:24Z</time>
      </trkpt>
      <trkpt lat="49.25116" lon="1.18045">
        <ele>31.585625</ele>
        <time>2020-06-01T10:09:25Z</time>
      </trkpt>
      <trkpt lat="49.24961" lon="1.18235">
        <ele>26.870581</ele>
        <time>2020-06-01T10:09:57Z</time>
      </trkpt>
      <trkpt lat="49.24859" lon="1.18363">
        <ele>18.2775</ele>
        <time>2020-06-01T10:11:23Z</time>
      </trkpt>
      <trkpt lat="49.24794" lon="1.18455">
        <ele>13.1713</ele>
        <time>2020-06-01T10:11:37Z</time>
      </trkpt>
      <trkpt lat="49.24752" lon="1.18534">
        <ele>13</ele>
        <time>2020-06-01T10:11:47Z</time>
      </trkpt>
      <trkpt lat="49.24749" lon="1.18543">
        <ele>13</ele>
        <time>2020-06-01T10:11:48Z</time>
      </trkpt>
      <trkpt lat="49.24748" lon="1.18562">
        <ele>13</ele>
        <time>2020-06-01T10:11:50Z</time>
      </trkpt>
      <trkpt lat="49.24754" lon="1.18578">
        <ele>13</ele>
        <time>2020-06-01T10:11:52Z</time>
      </trkpt>
      <trkpt lat="49.24759" lon="1.18586">
        <ele>13</ele>
        <time>2020-06-01T10:11:53Z</time>
      </trkpt>
      <trkpt lat="49.2477" lon="1.18599">
        <ele>13</ele>
        <time>2020-06-01T10:11:55Z</time>
      </trkpt>
      <trkpt lat="49.24768" lon="1.18613">
        <ele>13</ele>
        <time>2020-06-01T10:11:56Z</time>
      </trkpt>
      <trkpt lat="49.24767" lon="1.18621">
        <ele>13</ele>
        <time>2020-06-01T10:11:57Z</time>
      </trkpt>
      <trkpt lat="49.24737" lon="1.18647">
        <ele>13</ele>
        <time>2020-06-01T10:12:02Z</time>
      </trkpt>
      <trkpt lat="49.24728" lon="1.18652">
        <ele>13</ele>
        <time>2020-06-01T10:12:03Z</time>
      </trkpt>
      <trkpt lat="49.24721" lon="1.18661">
        <ele>13</ele>
        <time>2020-06-01T10:12:05Z</time>
      </trkpt>
      <trkpt lat="49.24715" lon="1.18672">
        <ele>13</ele>
        <time>2020-06-01T10:12:07Z</time>
      </trkpt>
      <trkpt lat="49.24713" lon="1.18682">
        <ele>13</ele>
        <time>2020-06-01T10:12:09Z</time>
      </trkpt>
      <trkpt lat="49.24716" lon="1.18707">
        <ele>13</ele>
        <time>2020-06-01T10:12:13Z</time>
      </trkpt>
      <trkpt lat="49.24721" lon="1.18716">
        <ele>12.943125</ele>
        <time>2020-06-01T10:12:15Z</time>
      </trkpt>
      <trkpt lat="49.24732" lon="1.18742">
        <ele>12.555</ele>
        <time>2020-06-01T10:12:26Z</time>
      </trkpt>
      <trkpt lat="49.2473" lon="1.18752">
        <ele>12.41875</ele>
        <time>2020-06-01T10:12:44Z</time>
      </trkpt>
      <trkpt lat="49.24726" lon="1.18748">
        <ele>12.469375</ele>
        <time>2020-06-01T10:13:08Z</time>
      </trkpt>
      <trkpt lat="49.24726" lon="1.18738">
        <ele>12.6225</ele>
        <time>2020-06-01T10:13:27Z</time>
      </trkpt>
      <trkpt lat="49.24723" lon="1.18729">
        <ele>12.75625</ele>
        <time>2020-06-01T10:13:29Z</time>
      </trkpt>
      <trkpt lat="49.24716" lon="1.18721">
        <ele>12.864375</ele>
        <time>2020-06-01T10:13:32Z</time>
      </trkpt>
      <trkpt lat="49.24688" lon="1.18747">
        <ele>12.591625</ele>
        <time>2020-06-01T10:13:41Z</time>
      </trkpt>
      <trkpt lat="49.24672" lon="1.18749">
        <ele>12.755338</ele>
        <time>2020-06-01T10:13:45Z</time>
      </trkpt>
      <trkpt lat="49.24666" lon="1.18746">
        <ele>12.8476</ele>
        <time>2020-06-01T10:13:50Z</time>
      </trkpt>
      <trkpt lat="49.24665" lon="1.1874">
        <ele>12.88105</ele>
        <time>2020-06-01T10:13:52Z</time>
      </trkpt>
      <trkpt lat="49.24667" lon="1.18735">
        <ele>12.88255</ele>
        <time>2020-06-01T10:13:56Z</time>
      </trkpt>
      <trkpt lat="49.24659" lon="1.18739">
        <ele>12.929815</ele>
        <time>2020-06-01T10:14:17Z</time>
      </trkpt>
      <trkpt lat="49.24638" lon="1.18761">
        <ele>13</ele>
        <time>2020-06-01T10:14:26Z</time>
      </trkpt>
      <trkpt lat="49.2463" lon="1.18767">
        <ele>13</ele>
        <time>2020-06-01T10:14:28Z</time>
      </trkpt>
      <trkpt lat="49.24628" lon="1.18781">
        <ele>13</ele>
        <time>2020-06-01T10:14:30Z</time>
      </trkpt>
      <trkpt lat="49.24622" lon="1.18793">
        <ele>13</ele>
        <time>2020-06-01T10:14:32Z</time>
      </trkpt>
      <trkpt lat="49.24615" lon="1.18803">
        <ele>13</ele>
        <time>2020-06-01T10:14:34Z</time>
      </trkpt>
      <trkpt lat="49.24598" lon="1.18811">
        <ele>13</ele>
        <time>2020-06-01T10:14:38Z</time>
      </trkpt>
      <trkpt lat="49.24593" lon="1.18819">
        <ele>13</ele>
        <time>2020-06-01T10:14:41Z</time>
      </trkpt>
      <trkpt lat="49.2459" lon="1.18852">
        <ele>13</ele>
        <time>2020-06-01T10:14:46Z</time>
      </trkpt>
      <trkpt lat="49.24582" lon="1.18913">
        <ele>13</ele>
        <time>2020-06-01T10:14:54Z</time>
      </trkpt>
      <trkpt lat="49.24577" lon="1.18918">
        <ele>13</ele>
        <time>2020-06-01T10:14:55Z</time>
      </trkpt>
      <trkpt lat="49.24504" lon="1.19136">
        <ele>13</ele>
        <time>2020-06-01T10:15:26Z</time>
      </trkpt>
      <trkpt lat="49.2446" lon="1.19279">
        <ele>13.36</ele>
        <time>2020-06-01T10:15:48Z</time>
      </trkpt>
      <trkpt lat="49.24461" lon="1.19276">
        <ele>13.355</ele>
        <time>2020-06-01T10:16:09Z</time>
      </trkpt>
      <trkpt lat="49.24467" lon="1.19273">
        <ele>13.215</ele>
        <time>2020-06-01T10:16:11Z</time>
      </trkpt>
      <trkpt lat="49.24475" lon="1.19273">
        <ele>13.04</ele>
        <time>2020-06-01T10:16:14Z</time>
      </trkpt>
      <trkpt lat="49.24478" lon="1.19282">
        <ele>12.994422</ele>
        <time>2020-06-01T10:16:18Z</time>
      </trkpt>
      <trkpt lat="49.24472" lon="1.1929">
        <ele>13.11</ele>
        <time>2020-06-01T10:16:23Z</time>
      </trkpt>
      <trkpt lat="49.24467" lon="1.19293">
        <ele>13.225</ele>
        <time>2020-06-01T10:16:27Z</time>
      </trkpt>
      <trkpt lat="49.24352" lon="1.19429">
        <ele>13.725956</ele>
        <time>2020-06-01T10:17:02Z</time>
      </trkpt>
      <trkpt lat="49.2434" lon="1.1943">
        <ele>13.60375</ele>
        <time>2020-06-01T10:17:40Z</time>
      </trkpt>
      <trkpt lat="49.24329" lon="1.19445">
        <ele>13.298775</ele>
        <time>2020-06-01T10:17:50Z</time>
      </trkpt>
      <trkpt lat="49.2433" lon="1.19468">
        <ele>13.07254</ele>
        <time>2020-06-01T10:18:03Z</time>
      </trkpt>
      <trkpt lat="49.2434" lon="1.1947">
        <ele>13.075325</ele>
        <time>2020-06-01T10:18:06Z</time>
      </trkpt>
      <trkpt lat="49.24355" lon="1.19482">
        <ele>13.145625</ele>
        <time>2020-06-01T10:18:10Z</time>
      </trkpt>
      <trkpt lat="49.24394" lon="1.19539">
        <ele>13.05875</ele>
        <time>2020-06-01T10:18:22Z</time>
      </trkpt>
      <trkpt lat="49.24398" lon="1.19551">
        <ele>12.875625</ele>
        <time>2020-06-01T10:18:24Z</time>
      </trkpt>
      <trkpt lat="49.2441" lon="1.19623">
        <ele>11.918718</ele>
        <time>2020-06-01T10:18:33Z</time>
      </trkpt>
      <trkpt lat="49.24417" lon="1.1963">
        <ele>11.83275</ele>
        <time>2020-06-01T10:18:34Z</time>
      </trkpt>
      <trkpt lat="49.24423" lon="1.19691">
        <ele>11.238162</ele>
        <time>2020-06-01T10:18:42Z</time>
      </trkpt>
      <trkpt lat="49.24428" lon="1.19713">
        <ele>11.088593</ele>
        <time>2020-06-01T10:18:45Z</time>
      </trkpt>
      <trkpt lat="49.24433" lon="1.19723">
        <ele>11.023237</ele>
        <time>2020-06-01T10:18:46Z</time>
      </trkpt>
      <trkpt lat="49.24444" lon="1.19739">
        <ele>11</ele>
        <time>2020-06-01T10:18:49Z</time>
      </trkpt>
      <trkpt lat="49.24455" lon="1.19747">
        <ele>10.997875</ele>
        <time>2020-06-01T10:18:51Z</time>
      </trkpt>
      <trkpt lat="49.24466" lon="1.1975">
        <ele>10.967659</ele>
        <time>2020-06-01T10:18:53Z</time>
      </trkpt>
      <trkpt lat="49.24531" lon="1.19734">
        <ele>11</ele>
        <time>2020-06-01T10:19:04Z</time>
      </trkpt>
      <trkpt lat="49.24562" lon="1.19739">
        <ele>11</ele>
        <time>2020-06-01T10:19:09Z</time>
      </trkpt>
      <trkpt lat="49.24575" lon="1.19743">
        <ele>11</ele>
        <time>2020-06-01T10:19:11Z</time>
      </trkpt>
      <trkpt lat="49.24617" lon="1.19786">
        <ele>10.38625</ele>
        <time>2020-06-01T10:19:20Z</time>
      </trkpt>
      <trkpt lat="49.24634" lon="1.19796">
        <ele>10.230625</ele>
        <time>2020-06-01T10:19:23Z</time>
      </trkpt>
      <trkpt lat="49.24666" lon="1.19801">
        <ele>10.129528</ele>
        <time>2020-06-01T10:19:28Z</time>
      </trkpt>
      <trkpt lat="49.24755" lon="1.19774">
        <ele>9.950625</ele>
        <time>2020-06-01T10:19:44Z</time>
      </trkpt>
      <trkpt lat="49.24792" lon="1.19782">
        <ele>9.437507</ele>
        <time>2020-06-01T10:19:51Z</time>
      </trkpt>
      <trkpt lat="49.24857" lon="1.19835">
        <ele>9</ele>
        <time>2020-06-01T10:20:05Z</time>
      </trkpt>
      <trkpt lat="49.24991" lon="1.20026">
        <ele>9.705</ele>
        <time>2020-06-01T10:20:35Z</time>
      </trkpt>
      <trkpt lat="49.25102" lon="1.20231">
        <ele>9.786669</ele>
        <time>2020-06-01T10:21:06Z</time>
      </trkpt>
      <trkpt lat="49.25209" lon="1.20438">
        <ele>9.045</ele>
        <time>2020-06-01T10:21:37Z</time>
      </trkpt>
      <trkpt lat="49.2524" lon="1.20489">
        <ele>9.678782</ele>
        <time>2020-06-01T10:21:45Z</time>
      </trkpt>
      <trkpt lat="49.25317" lon="1.20586">
        <ele>9.42</ele>
        <time>2020-06-01T10:22:05Z</time>
      </trkpt>
      <trkpt lat="49.25432" lon="1.20665">
        <ele>10</ele>
        <time>2020-06-01T10:22:30Z</time>
      </trkpt>
      <trkpt lat="49.25445" lon="1.20713">
        <ele>10</ele>
        <time>2020-06-01T10:22:34Z</time>
      </trkpt>
      <trkpt lat="49.25478" lon="1.20695">
        <ele>10</ele>
        <time>2020-06-01T10:22:40Z</time>
      </trkpt>
      <trkpt lat="49.25489" lon="1.20708">
        <ele>10</ele>
        <time>2020-06-01T10:22:44Z</time>
      </trkpt>
      <trkpt lat="49.2551" lon="1.20742">
        <ele>10</ele>
        <time>2020-06-01T10:22:52Z</time>
      </trkpt>
      <trkpt lat="49.25522" lon="1.20776">
        <ele>10</ele>
        <time>2020-06-01T10:23:10Z</time>
      </trkpt>
      <trkpt lat="49.25521" lon="1.20787">
        <ele>10</ele>
        <time>2020-06-01T10:23:11Z</time>
      </trkpt>
      <trkpt lat="49.25571" lon="1.2095">
        <ele>10</ele>
        <time>2020-06-01T10:23:31Z</time>
      </trkpt>
      <trkpt lat="49.25576" lon="1.20971">
        <ele>10</ele>
        <time>2020-06-01T10:23:36Z</time>
      </trkpt>
      <trkpt lat="49.25583" lon="1.20978">
        <ele>10</ele>
        <time>2020-06-01T10:23:38Z</time>
      </trkpt>
      <trkpt lat="49.25587" lon="1.20988">
        <ele>10</ele>
        <time>2020-06-01T10:24:11Z</time>
      </trkpt>
      <trkpt lat="49.256" lon="1.20996">
        <ele>10</ele>
        <time>2020-06-01T10:24:17Z</time>
      </trkpt>
      <trkpt lat="49.25606" lon="1.21002">
        <ele>10</ele>
        <time>2020-06-01T10:24:19Z</time>
      </trkpt>
      <trkpt lat="49.25602" lon="1.21012">
        <ele>10</ele>
        <time>2020-06-01T10:24:22Z</time>
      </trkpt>
      <trkpt lat="49.25594" lon="1.21035">
        <ele>10</ele>
        <time>2020-06-01T10:24:26Z</time>
      </trkpt>
      <trkpt lat="49.25594" lon="1.2105">
        <ele>10</ele>
        <time>2020-06-01T10:24:28Z</time>
      </trkpt>
      <trkpt lat="49.25619" lon="1.21131">
        <ele>10</ele>
        <time>2020-06-01T10:24:40Z</time>
      </trkpt>
      <trkpt lat="49.25715" lon="1.21321">
        <ele>10</ele>
        <time>2020-06-01T10:25:11Z</time>
      </trkpt>
      <trkpt lat="49.25797" lon="1.21542">
        <ele>10</ele>
        <time>2020-06-01T10:25:43Z</time>
      </trkpt>
      <trkpt lat="49.25897" lon="1.21769">
        <ele>9.069187</ele>
        <time>2020-06-01T10:26:23Z</time>
      </trkpt>
      <trkpt lat="49.25915" lon="1.21817">
        <ele>9</ele>
        <time>2020-06-01T10:26:31Z</time>
      </trkpt>
      <trkpt lat="49.25923" lon="1.21845">
        <ele>9</ele>
        <time>2020-06-01T10:26:35Z</time>
      </trkpt>
      <trkpt lat="49.25931" lon="1.21866">
        <ele>9</ele>
        <time>2020-06-01T10:26:39Z</time>
      </trkpt>
      <trkpt lat="49.2594" lon="1.219">
        <ele>9</ele>
        <time>2020-06-01T10:26:45Z</time>
      </trkpt>
      <trkpt lat="49.25948" lon="1.21924">
        <ele>9</ele>
        <time>2020-06-01T10:26:49Z</time>
      </trkpt>
      <trkpt lat="49.2595" lon="1.21936">
        <ele>9</ele>
        <time>2020-06-01T10:26:51Z</time>
      </trkpt>
      <trkpt lat="49.25958" lon="1.21962">
        <ele>9</ele>
        <time>2020-06-01T10:26:55Z</time>
      </trkpt>
      <trkpt lat="49.25969" lon="1.21983">
        <ele>9</ele>
        <time>2020-06-01T10:27:34Z</time>
      </trkpt>
      <trkpt lat="49.25978" lon="1.22004">
        <ele>9</ele>
        <time>2020-06-01T10:27:37Z</time>
      </trkpt>
      <trkpt lat="49.25988" lon="1.2202">
        <ele>9</ele>
        <time>2020-06-01T10:27:40Z</time>
      </trkpt>
      <trkpt lat="49.26069" lon="1.22086">
        <ele>9</ele>
        <time>2020-06-01T10:28:03Z</time>
      </trkpt>
      <trkpt lat="49.26127" lon="1.22111">
        <ele>9</ele>
        <time>2020-06-01T10:28:16Z</time>
      </trkpt>
      <trkpt lat="49.26255" lon="1.2221">
        <ele>8</ele>
        <time>2020-06-01T10:28:44Z</time>
      </trkpt>
      <trkpt lat="49.26298" lon="1.22257">
        <ele>8</ele>
        <time>2020-06-01T10:28:55Z</time>
      </trkpt>
      <trkpt lat="49.26304" lon="1.22266">
        <ele>8</ele>
        <time>2020-06-01T10:28:56Z</time>
      </trkpt>
      <trkpt lat="49.26308" lon="1.22277">
        <ele>8</ele>
        <time>2020-06-01T10:28:58Z</time>
      </trkpt>
      <trkpt lat="49.26314" lon="1.22283">
        <ele>8</ele>
        <time>2020-06-01T10:29:00Z</time>
      </trkpt>
      <trkpt lat="49.26349" lon="1.22287">
        <ele>8</ele>
        <time>2020-06-01T10:29:08Z</time>
      </trkpt>
      <trkpt lat="49.26383" lon="1.22279">
        <ele>8</ele>
        <time>2020-06-01T10:29:14Z</time>
      </trkpt>
      <trkpt lat="49.26421" lon="1.22259">
        <ele>8</ele>
        <time>2020-06-01T10:29:24Z</time>
      </trkpt>
      <trkpt lat="49.26423" lon="1.22282">
        <ele>8</ele>
        <time>2020-06-01T10:29:27Z</time>
      </trkpt>
      <trkpt lat="49.26436" lon="1.22296">
        <ele>8</ele>
        <time>2020-06-01T10:29:33Z</time>
      </trkpt>
      <trkpt lat="49.26442" lon="1.22298">
        <ele>8</ele>
        <time>2020-06-01T10:29:54Z</time>
      </trkpt>
      <trkpt lat="49.26445" lon="1.22306">
        <ele>8</ele>
        <time>2020-06-01T10:29:56Z</time>
      </trkpt>
      <trkpt lat="49.26454" lon="1.22321">
        <ele>8.14375</ele>
        <time>2020-06-01T10:30:01Z</time>
      </trkpt>
      <trkpt lat="49.26469" lon="1.22329">
        <ele>8.26625</ele>
        <time>2020-06-01T10:30:06Z</time>
      </trkpt>
      <trkpt lat="49.26607" lon="1.22306">
        <ele>8</ele>
        <time>2020-06-01T10:30:37Z</time>
      </trkpt>
      <trkpt lat="49.26718" lon="1.22281">
        <ele>7.836959</ele>
        <time>2020-06-01T10:30:59Z</time>
      </trkpt>
      <trkpt lat="49.26726" lon="1.22305">
        <ele>7.571253</ele>
        <time>2020-06-01T10:31:00Z</time>
      </trkpt>
      <trkpt lat="49.26935" lon="1.22299">
        <ele>7.121281</ele>
        <time>2020-06-01T10:31:34Z</time>
      </trkpt>
      <trkpt lat="49.27125" lon="1.22261">
        <ele>7.521875</ele>
        <time>2020-06-01T10:32:05Z</time>
      </trkpt>
      <trkpt lat="49.27275" lon="1.22219">
        <ele>8</ele>
        <time>2020-06-01T10:32:32Z</time>
      </trkpt>
      <trkpt lat="49.27306" lon="1.22194">
        <ele>8</ele>
        <time>2020-06-01T10:32:41Z</time>
      </trkpt>
      <trkpt lat="49.27348" lon="1.22365">
        <ele>8</ele>
        <time>2020-06-01T10:33:11Z</time>
      </trkpt>
      <trkpt lat="49.27351" lon="1.22373">
        <ele>8</ele>
        <time>2020-06-01T10:33:13Z</time>
      </trkpt>
      <trkpt lat="49.27357" lon="1.22361">
        <ele>8</ele>
        <time>2020-06-01T10:33:17Z</time>
      </trkpt>
      <trkpt lat="49.2734" lon="1.2229">
        <ele>8</ele>
        <time>2020-06-01T10:33:25Z</time>
      </trkpt>
      <trkpt lat="49.27354" lon="1.22293">
        <ele>8</ele>
        <time>2020-06-01T10:33:29Z</time>
      </trkpt>
      <trkpt lat="49.27375" lon="1.22285">
        <ele>8</ele>
        <time>2020-06-01T10:33:32Z</time>
      </trkpt>
      <trkpt lat="49.27406" lon="1.2225">
        <ele>8</ele>
        <time>2020-06-01T10:33:38Z</time>
      </trkpt>
      <trkpt lat="49.27419" lon="1.22232">
        <ele>8</ele>
        <time>2020-06-01T10:33:41Z</time>
      </trkpt>
      <trkpt lat="49.2754" lon="1.22122">
        <ele>8</ele>
        <time>2020-06-01T10:34:03Z</time>
      </trkpt>
      <trkpt lat="49.27589" lon="1.22071">
        <ele>7.897053</ele>
        <time>2020-06-01T10:34:12Z</time>
      </trkpt>
      <trkpt lat="49.27633" lon="1.22048">
        <ele>7.53625</ele>
        <time>2020-06-01T10:34:19Z</time>
      </trkpt>
      <trkpt lat="49.27836" lon="1.22026">
        <ele>7.220613</ele>
        <time>2020-06-01T10:34:50Z</time>
      </trkpt>
      <trkpt lat="49.27893" lon="1.22003">
        <ele>7</ele>
        <time>2020-06-01T10:35:00Z</time>
      </trkpt>
      <trkpt lat="49.28084" lon="1.21803">
        <ele>7.082175</ele>
        <time>2020-06-01T10:35:36Z</time>
      </trkpt>
      <trkpt lat="49.28149" lon="1.21748">
        <ele>7.070547</ele>
        <time>2020-06-01T10:35:50Z</time>
      </trkpt>
      <trkpt lat="49.28235" lon="1.2171">
        <ele>7.810625</ele>
        <time>2020-06-01T10:36:06Z</time>
      </trkpt>
      <trkpt lat="49.28255" lon="1.21628">
        <ele>7</ele>
        <time>2020-06-01T10:36:11Z</time>
      </trkpt>
      <trkpt lat="49.28267" lon="1.21625">
        <ele>7</ele>
        <time>2020-06-01T10:36:13Z</time>
      </trkpt>
      <trkpt lat="49.28286" lon="1.21626">
        <ele>7.174181</ele>
        <time>2020-06-01T10:36:15Z</time>
      </trkpt>
      <trkpt lat="49.2841" lon="1.21546">
        <ele>7.438844</ele>
        <time>2020-06-01T10:36:38Z</time>
      </trkpt>
      <trkpt lat="49.28531" lon="1.21487">
        <ele>7</ele>
        <time>2020-06-01T10:37:00Z</time>
      </trkpt>
      <trkpt lat="49.28589" lon="1.21424">
        <ele>7</ele>
        <time>2020-06-01T10:37:11Z</time>
      </trkpt>
      <trkpt lat="49.28621" lon="1.21342">
        <ele>7</ele>
        <time>2020-06-01T10:37:21Z</time>
      </trkpt>
      <trkpt lat="49.28638" lon="1.21198">
        <ele>6.47</ele>
        <time>2020-06-01T10:37:36Z</time>
      </trkpt>
      <trkpt lat="49.28663" lon="1.21127">
        <ele>6</ele>
        <time>2020-06-01T10:37:44Z</time>
      </trkpt>
      <trkpt lat="49.28696" lon="1.21067">
        <ele>6</ele>
        <time>2020-06-01T10:37:53Z</time>
      </trkpt>
      <trkpt lat="49.28717" lon="1.21042">
        <ele>6</ele>
        <time>2020-06-01T10:37:58Z</time>
      </trkpt>
      <trkpt lat="49.28783" lon="1.21001">
        <ele>6.172762</ele>
        <time>2020-06-01T10:38:11Z</time>
      </trkpt>
      <trkpt lat="49.28847" lon="1.21204">
        <ele>7</ele>
        <time>2020-06-01T10:38:43Z</time>
      </trkpt>
      <trkpt lat="49.28901" lon="1.21368">
        <ele>6.9294</ele>
        <time>2020-06-01T10:39:05Z</time>
      </trkpt>
      <trkpt lat="49.2891" lon="1.2139">
        <ele>6.488469</ele>
        <time>2020-06-01T10:39:09Z</time>
      </trkpt>
      <trkpt lat="49.28975" lon="1.21343">
        <ele>6.30125</ele>
        <time>2020-06-01T10:39:21Z</time>
      </trkpt>
      <trkpt lat="49.28998" lon="1.21328">
        <ele>6.519375</ele>
        <time>2020-06-01T10:39:25Z</time>
      </trkpt>
      <trkpt lat="49.29026" lon="1.21336">
        <ele>6.3925</ele>
        <time>2020-06-01T10:39:28Z</time>
      </trkpt>
      <trkpt lat="49.30083" lon="1.20498">
        <ele>7.46</ele>
        <time>2020-06-01T10:42:48Z</time>
      </trkpt>
      <trkpt lat="49.30125" lon="1.20196">
        <ele>7.799031</ele>
        <time>2020-06-01T10:43:18Z</time>
      </trkpt>
      <trkpt lat="49.30117" lon="1.20176">
        <ele>7.973869</ele>
        <time>2020-06-01T10:43:20Z</time>
      </trkpt>
      <trkpt lat="49.30132" lon="1.20107">
        <ele>8</ele>
        <time>2020-06-01T10:43:29Z</time>
      </trkpt>
      <trkpt lat="49.30146" lon="1.20085">
        <ele>7.981266</ele>
        <time>2020-06-01T10:43:33Z</time>
      </trkpt>
      <trkpt lat="49.30134" lon="1.20042">
        <ele>8</ele>
        <time>2020-06-01T10:43:44Z</time>
      </trkpt>
      <trkpt lat="49.30186" lon="1.1977">
        <ele>8</ele>
        <time>2020-06-01T10:44:09Z</time>
      </trkpt>
      <trkpt lat="49.30193" lon="1.19591">
        <ele>8</ele>
        <time>2020-06-01T10:44:25Z</time>
      </trkpt>
      <trkpt lat="49.30245" lon="1.19252">
        <ele>8</ele>
        <time>2020-06-01T10:44:56Z</time>
      </trkpt>
      <trkpt lat="49.30315" lon="1.18893">
        <ele>7.97</ele>
        <time>2020-06-01T10:45:27Z</time>
      </trkpt>
      <trkpt lat="49.30335" lon="1.18781">
        <ele>7.485</ele>
        <time>2020-06-01T10:45:37Z</time>
      </trkpt>
      <trkpt lat="49.30365" lon="1.18364">
        <ele>6.337625</ele>
        <time>2020-06-01T10:46:11Z</time>
      </trkpt>
      <trkpt lat="49.30368" lon="1.18271">
        <ele>5</ele>
        <time>2020-06-01T10:46:19Z</time>
      </trkpt>
      <trkpt lat="49.30364" lon="1.18231">
        <ele>5</ele>
        <time>2020-06-01T10:46:23Z</time>
      </trkpt>
      <trkpt lat="49.30337" lon="1.18134">
        <ele>5.3</ele>
        <time>2020-06-01T10:46:35Z</time>
      </trkpt>
      <trkpt lat="49.30332" lon="1.1812">
        <ele>5.415</ele>
        <time>2020-06-01T10:46:37Z</time>
      </trkpt>
      <trkpt lat="49.30319" lon="1.18123">
        <ele>5.715</ele>
        <time>2020-06-01T10:46:39Z</time>
      </trkpt>
      <trkpt lat="49.30296" lon="1.18104">
        <ele>6.173994</ele>
        <time>2020-06-01T10:46:46Z</time>
      </trkpt>
      <trkpt lat="49.30284" lon="1.18067">
        <ele>5.628719</ele>
        <time>2020-06-01T10:46:50Z</time>
      </trkpt>
      <trkpt lat="49.30292" lon="1.18012">
        <ele>5.105094</ele>
        <time>2020-06-01T10:46:59Z</time>
      </trkpt>
      <trkpt lat="49.30319" lon="1.17793">
        <ele>5.645</ele>
        <time>2020-06-01T10:47:20Z</time>
      </trkpt>
      <trkpt lat="49.30319" lon="1.17768">
        <ele>5.63</ele>
        <time>2020-06-01T10:47:24Z</time>
      </trkpt>
      <trkpt lat="49.30336" lon="1.17768">
        <ele>5.255</ele>
        <time>2020-06-01T10:47:28Z</time>
      </trkpt>
      <trkpt lat="49.30336" lon="1.17774">
        <ele>5.265</ele>
        <time>2020-06-01T10:50:24Z</time>
      </trkpt>
    </trkseg>
  </trk>
</gpx>